Prochaines Courses

Connexion

10KM

10Km FOULEES OUTRELOISES du 16/11/14 (Reelle 10)
Rang Dossard Nom Prénom Temps Cat Rang Cat Ecart Ecart Cat Club Vitesse Km/h Temps au Km
1 482 PRUVOT YOHANN 00:31:58 SEM 1 00:00:00 00:00:00 A.S. MARCK 18,770 03:12
2 505 GRESSIER JIMMY 00:32:09 JUM 1 00:00:11 00:00:00 MARQUISE 18,663 03:13
3 466 PLOVIER CEDRIC 00:32:21 SEM 2 00:00:23 00:00:23 U.S. DUNKERQUE 18,547 03:14
4 242 VENZA DAVID 00:32:28 V1M 1 00:00:30 00:00:00 AS COUREURS DE FOND DU CATEAU 18,480 03:15
5 323 DESTRES CHRISTOPHE 00:32:33 SEM 3 00:00:35 00:00:35 S/L CA FOURMIES 18,433 03:15
6 596 RAMET BENOIT 00:33:12 SEM 4 00:01:14 00:01:14 TOUQUET OPALE ATHLETISME 18,072 03:19
7 267 BOULOGNE JEREMY 00:33:36 V1M 2 00:01:38 00:01:08 AC AUDOMAROIS 17,857 03:22
8 107 MONTADOR NICOLAS 00:33:53 SEM 5 00:01:55 00:01:55 ATHLETISME CLUB OUTREAU 17,708 03:23
9 51 LEPRETRE BENJAMIN 00:34:12 CAM 1 00:02:14 00:00:00 TOUQUET OPALE ATHLETISME 17,544 03:25
10 526 PICHONNIER GUILLAUME 00:34:20 SEM 6 00:02:22 00:02:22 AC OUTREAU 17,476 03:26
11 597 THESSE YANN 00:34:34 V1M 3 00:02:36 00:02:06 AC AUDOMAROIS 17,358 03:27
12 324 RAIMOND FREDERIC 00:34:49 SEM 7 00:02:51 00:02:51 ASRHV VALLEE DES LACS ET DE LA CLEURIE 17,233 03:29
13 241 HENQUEZ THIERRY 00:35:00 V1M 4 00:03:02 00:02:32 AC AUDOMAROIS 17,143 03:30
14 489 HENQUEZ CHRISTOPHE 00:35:02 V1M 5 00:03:04 00:02:34 A.S. MARCK 17,127 03:30
15 256 MEATS ANTOINE 00:35:04 SEM 8 00:03:06 00:03:06 A.S. MARCK 17,110 03:30
16 20 GUILBERT HERVE 00:35:10 V2M 1 00:03:12 00:00:00 R.C ARRAS 17,062 03:31
17 587 GHYS ALEXANDRE 00:35:22 ESM 1 00:03:24 00:00:00 NON LICENCIE 16,965 03:32
18 132 BOURDON GILBERT 00:35:33 SEM 9 00:03:35 00:03:35 NON LICENCIE 16,878 03:33
19 27 AGEZ DAVID 00:35:37 ESM 2 00:03:39 00:00:15 NON LICENCIE 16,846 03:34
20 590 MATRINGHEN TONY 00:35:47 SEM 10 00:03:49 00:03:49 TRIATHLON CLUB BOULONNAIS 16,768 03:35
21 261 MOREL NICOLAS 00:35:51 V1M 6 00:03:53 00:03:23 TOUQUET OPALE ATHLETISME 16,736 03:35
22 34 CONDETTE JEAN-MICHEL 00:35:54 V1M 7 00:03:56 00:03:26 MARQUISE ATHLETISME 16,713 03:35
23 224 BREQUEVILLE SAMUEL 00:36:03 V1M 8 00:04:05 00:03:35 TOUQUET TRAIL NATURE 16,644 03:36
24 609 CALOIN MATHIEU 00:36:10 SEM 11 00:04:12 00:04:12 TOUQUET OPALE ATHLETISME 16,590 03:37
25 141 FASQUEL DOMINIQUE 00:36:21 V1M 9 00:04:23 00:03:53 ATHLETISME CLUB OUTREAU 16,506 03:38
26 486 ROELS PASCAL 00:36:37 V1M 10 00:04:39 00:04:09 A.S. MARCK 16,386 03:40
27 265 BRUNET MICKAEL 00:36:46 SEM 12 00:04:48 00:04:48 BLANC NEZ TRIATHLON 16,319 03:41
28 599 DEWAGHE CHRISTOPHE 00:36:47 V2M 2 00:04:49 00:01:37 NON LICENCIE 16,312 03:41
29 263 MARGOLLE THOMAS 00:36:49 JUM 2 00:04:51 00:04:40 TOUQUET OPALE ATHLETISME 16,297 03:41
30 375 DOCQUOIS FREDERIC 00:36:54 V1M 11 00:04:56 00:04:26 LE DRAPEAU 16,260 03:41
31 360 MORIN AYMERIC 00:37:01 SEM 13 00:05:03 00:05:03 WIMEREUX RUNNING CLUB 16,209 03:42
32 603 GOURDIN ERIC 00:37:07 V1M 12 00:05:09 00:04:39 NON LICENCIE 16,165 03:43
33 625 FOUBLE LAURENT 00:37:11 SEM 14 00:05:13 00:05:13 MARQUISE ATHLETISME 16,136 03:43
34 601 TOULOUMON ANTOINE 00:37:12 CAM 2 00:05:14 00:03:00 MARQUISE ATHLETISME 16,129 03:43
35 391 CHAUCHOY LOIC 00:37:12 SEM 15 00:05:14 00:05:14 COLEMBERT 16,129 03:43
36 554 GRESSIER OLIVIER 00:37:16 V1M 13 00:05:18 00:04:48 TEAM TRAIL 62 16,100 03:44
37 8 PRUVOT ROMAIN 00:37:16 SEM 16 00:05:18 00:05:18 TOUQUET OPALE ATHLETISME 16,100 03:44
38 146 POIRET GEORGES 00:37:17 V1M 14 00:05:19 00:04:49 ATHLETISME CLUB OUTREAU 16,093 03:44
39 130 BEAUMONT DENIS 00:37:19 V1M 15 00:05:21 00:04:51 ATHLETISME CLUB OUTREAU 16,079 03:44
40 573 JOSEPH JOEL 00:37:23 V2M 3 00:05:25 00:02:13 AC GOUSSAINVILLE 16,050 03:44
41 175 SAUNEUF PHILIPPE 00:37:25 V1M 16 00:05:27 00:04:57 SAINT MARTIN ATHLETISME 16,036 03:45
42 271 QUENUT LAURENT 00:37:25 V1M 17 00:05:27 00:04:57 NON LICENCIE 16,036 03:45
43 861 VENZA EMILIE 00:37:30 SEF 1 00:05:32 00:00:00 U.S. DUNKERQUE 16,000 03:45
44 429 LECOCQ PIERRE 00:37:34 SEM 17 00:05:36 00:05:36 USVA ATHLETISME 15,972 03:45
45 607 DELLIAUX OLIVIER 00:37:44 SEM 18 00:05:46 00:05:46 TRIATHLON BOULOGNE 15,901 03:46
46 595 CHAVATTE VALENTIN 00:37:51 SEM 19 00:05:53 00:05:53 TOUQUET ATHLETIQUE CLUB 15,852 03:47
47 624 LEROUX GUILLAUME 00:37:53 SEM 20 00:05:55 00:05:55 TEAM TRAIL 62 15,838 03:47
48 634 LE BEC MICHAEL 00:37:54 SEM 21 00:05:56 00:05:56 TEAM TRAIL 62 15,831 03:47
49 467 WACOGNE MICHAEL 00:37:55 SEM 22 00:05:57 00:05:57 TOUQUET OPALE ATHLETISME 15,824 03:48
50 473 MAYE BRUNO 00:37:55 V2M 4 00:05:57 00:02:45 O.S. AIRE 15,824 03:48
51 47 DE SCHOUWER NICOLAS 00:38:00 SEM 23 00:06:02 00:06:02 JOGGING CLUB LICQUOIS 15,789 03:48
52 604 ANSEL JEROME 00:38:01 V1M 18 00:06:03 00:05:33 NON LICENCIE 15,783 03:48
53 346 LOEUILLIEUX STEPHANE 00:38:04 V1M 19 00:06:06 00:05:36 TEAM TRAIL 62 15,762 03:48
54 794 GILLODTS ISABELLE 00:38:04 V1F 1 00:06:06 00:00:00 CLUB ATHLE. COUDEKERQUE-B 15,762 03:48
55 89 DELVALLEE ALEXANDRE 00:38:18 SEM 24 00:06:20 00:06:20 ATHLETISME CLUB OUTREAU 15,666 03:50
56 457 RUMEAU MICHAEL 00:38:21 SEM 25 00:06:23 00:06:23 ATHLETIQUE CLUB CAPELLOIS 15,645 03:50
57 179 DUCLOY KEVIN 00:38:24 SEM 26 00:06:26 00:06:26 SAINT MARTIN ATHLETISME 15,625 03:50
58 299 DUPONT JEAN-PIERRE 00:38:29 V2M 5 00:06:31 00:03:19 PATRIOTES DE GUINES 15,591 03:51
59 195 PRZYBYLSKI GUILLAUME 00:38:29 SEM 27 00:06:31 00:06:31 ATHLETISME CLUB OUTREAU 15,591 03:51
60 188 COPPIN NICOLAS 00:38:30 V1M 20 00:06:32 00:06:02 ATHLETISME CLUB OUTREAU 15,584 03:51
61 450 LEVEL FABIEN 00:38:33 SEM 28 00:06:35 00:06:35 ATHLETIQUE CLUB CAPELLOIS 15,564 03:51
62 555 MASCOT GREGORY 00:38:34 V1M 21 00:06:36 00:06:06 TRIATHLON BOULOGNE 15,557 03:51
63 470 DEPLECHIN DAVID 00:38:34 V1M 22 00:06:36 00:06:06 TEAM TRAIL 62 15,557 03:51
64 120 LOUVRIE DIDIER 00:38:42 V3M 1 00:06:44 00:00:00 TOUQUET OPALE ATHLETISME 15,504 03:52
65 357 RIVET JEAN-FRANCOIS 00:38:45 V1M 23 00:06:47 00:06:17 WIMEREUX RUNNING CLUB 15,484 03:53
66 135 BRUNEL STEPHANE 00:38:57 V1M 24 00:06:59 00:06:29 ATHLETISME CLUB OUTREAU 15,404 03:54
67 342 REMBUR DANIEL 00:39:05 V2M 6 00:07:07 00:03:55 TOUQUET OPALE ATHLETISME 15,352 03:55
68 15 APHERVE AURELIEN 00:39:11 CAM 3 00:07:13 00:04:59 LE DRAPEAU 15,313 03:55
69 214 DEBUSSCHERE DAVID 00:39:16 V1M 25 00:07:18 00:06:48 ATHLETISME CLUB OUTREAU 15,280 03:56
70 12 CARDON FLORIAN 00:39:17 ESM 3 00:07:19 00:03:55 LE DRAPEAU 15,274 03:56
71 628 FOURRIER FREDERIC 00:39:20 SEM 29 00:07:22 00:07:22 C.C.CASSEL 15,254 03:56
72 134 BRILLARD SEBASTIEN 00:39:29 SEM 30 00:07:31 00:07:31 ATHLETISME CLUB OUTREAU 15,196 03:57
73 549 DUHAMEL PHILIPPE 00:39:30 V2M 7 00:07:32 00:04:20 NON LICENCIE 15,190 03:57
74 192 LEFEVRE KEVIN 00:39:32 SEM 31 00:07:34 00:07:34 ATHLETISME CLUB OUTREAU 15,177 03:57
75 114 QUANDALLE VINCENT 00:39:35 JUM 3 00:07:37 00:07:26 ATHLETISME CLUB OUTREAU 15,158 03:58
76 29 REMBUR JULIEN 00:39:36 SEM 32 00:07:38 00:07:38 NON LICENCIE 15,152 03:58
77 298 DELPLANQUE PAUL 00:39:36 SEM 33 00:07:38 00:07:38 PATRIOTES CROSS DE GUINES 15,152 03:58
78 52 MALFOY JEREMY 00:39:37 SEM 34 00:07:39 00:07:39 NON LICENCIE 15,145 03:58
79 296 DUCROCQ ARNAUD 00:39:40 V1M 26 00:07:42 00:07:12 PATRIOTES CROSS DE GUINES 15,126 03:58
80 345 VAMBRE LAURENT 00:39:41 V1M 27 00:07:43 00:07:13 TOUQUET OPALE ATHLETISME 15,120 03:58
81 289 PIERRU REYNALD 00:39:43 V1M 28 00:07:45 00:07:15 PATRIOTES DE GUINES 15,107 03:58
82 217 HERMET LUC 00:39:45 V1M 29 00:07:47 00:07:17 ARC INTERNATIONAL 15,094 03:59
83 102 LETITRE BRUNO 00:39:48 SEM 35 00:07:50 00:07:50 ATHLETISME CLUB OUTREAU 15,075 03:59
84 576 VASSEUR MATTHIEU 00:39:49 SEM 36 00:07:51 00:07:51 NON LICENCIE 15,069 03:59
85 512 MACQUET BENOIT 00:39:50 SEM 37 00:07:52 00:07:52 NON LICENCIE 15,063 03:59
86 351 VIGREUX JEROME 00:39:51 V1M 30 00:07:53 00:07:23 NON LICENCIE 15,056 03:59
87 442 BRIEZ ARNAUD 00:39:55 V1M 31 00:07:57 00:07:27 ATHLETIQUE CLUB CAPELLOIS 15,031 04:00
88 896 PODVIN CLAUDINE 00:39:57 V1F 2 00:07:59 00:01:53 TOUQUET OPALE ATHLETISME 15,019 04:00
89 382 LEBLOND ARNAUD 00:39:58 V1M 32 00:08:00 00:07:30 LE DRAPEAU 15,013 04:00
90 92 DESACHY MARC 00:40:03 V1M 33 00:08:05 00:07:35 ATHLETISME CLUB OUTREAU 14,981 04:00
91 626 GRARE JULIEN 00:40:04 CAM 4 00:08:06 00:05:52 MARQUISE ATHLETISME 14,975 04:00
92 225 KUPCZYK MARIAN 00:40:08 SEM 38 00:08:10 00:08:10 NON LICENCIE 14,950 04:01
93 640 COLIN XAVIER 00:40:09 V1M 34 00:08:11 00:07:41 NON LICENCIE 14,944 04:01
94 244 BATTESTI DAVID 00:40:10 SEM 39 00:08:12 00:08:12 TEAMRAKLETTE  14,938 04:01
95 142 FONTAINE NICOLAS 00:40:11 SEM 40 00:08:13 00:08:13 ATHLETISME CLUB OUTREAU 14,932 04:01
96 560 BOURGAIN MICKAEL 00:40:13 SEM 41 00:08:15 00:08:15 OPALE TRAIL NATURE 14,919 04:01
97 610 HODIQUE HERVE 00:40:15 V1M 35 00:08:17 00:07:47 TEAM TRAIL 62 14,907 04:02
98 24 HALLENNE VALERY 00:40:15 V1M 36 00:08:17 00:07:47 TOUQUET OPALE ATHLETISME 14,907 04:02
99 274 GOBERT LUDOVIC 00:40:17 SEM 42 00:08:19 00:08:19 CS NESLES 14,894 04:02
100 402 DACQUIN FABIEN 00:40:18 V1M 37 00:08:20 00:07:50 TEAM TRAIL 62 14,888 04:02
101 140 DEBOVE MICHEL 00:40:18 V2M 8 00:08:20 00:05:08 ATHLETISME CLUB OUTREAU 14,888 04:02
102 430 MONCHICOURT ROMAIN 00:40:20 SEM 43 00:08:22 00:08:22 USVA ATHLETISME 14,876 04:02
103 485 TESSIER LAURENT 00:40:22 V1M 38 00:08:24 00:07:54 A.S. MARCK 14,864 04:02
104 871 CORDIER CAROLINE 00:40:25 SEF 2 00:08:27 00:02:55 LILLE METROPOLE ATHLETISM 14,845 04:03
105 569 GHYS MATHIEU 00:40:26 SEM 44 00:08:28 00:08:28 NON LICENCIE 14,839 04:03
106 45 JAZDONCZYK REMY 00:40:26 V3M 2 00:08:28 00:01:44 USVA ATHLETISME 14,839 04:03
107 291 MAZURIER ALAIN 00:40:28 V1M 39 00:08:30 00:08:00 PATRIOTES DE GUINES 14,827 04:03
108 83 BOURGAIN SEBASTIEN 00:40:30 V1M 40 00:08:32 00:08:02 ATHLETISME CLUB OUTREAU 14,815 04:03
109 131 BLOQUET STANISLAS 00:40:31 V1M 41 00:08:33 00:08:03 ATHLETISME CLUB OUTREAU 14,809 04:03
110 334 RIFFARD THOMAS 00:40:32 SEM 45 00:08:34 00:08:34 OPALE TRAIL NATURE 14,803 04:03
111 469 TAVERNE DAMIEN 00:40:32 SEM 46 00:08:34 00:08:34 TOUQUET OPALE ATHLETISME 14,803 04:03
112 166 BERQUEZ CORENTIN 00:40:33 ESM 4 00:08:35 00:05:11 SAINT MARTIN ATHLETISME 14,797 04:03
113 213 CALOIN WILLIAM 00:40:33 V1M 42 00:08:35 00:08:05 ATHLETISME CLUB OUTREAU 14,797 04:03
114 189 DELATTRE JOHANN 00:40:34 SEM 47 00:08:36 00:08:36 ATHLETISME CLUB OUTREAU 14,790 04:03
115 619 DELABASSERUE VINCENT 00:40:36 SEM 48 00:08:38 00:08:38 NON LICENCIE 14,778 04:04
116 121 TETARD CHRISTOPHE 00:40:37 V1M 43 00:08:39 00:08:09 OPALE TRAIL NATURE 14,772 04:04
117 508 GRARE FLORIAN 00:40:38 ESM 5 00:08:40 00:05:16 MARQUISE ATHLETISME 14,766 04:04
118 93 DESEILLE GAUTIER 00:40:39 JUM 4 00:08:41 00:08:30 ATHLETISME CLUB OUTREAU 14,760 04:04
119 35 NEMPONT FREDERIC 00:40:43 V1M 44 00:08:45 00:08:15 NON LICENCIE 14,736 04:04
120 301 FOURNIER JEROME 00:40:43 SEM 49 00:08:45 00:08:45 PATRIOTES DE GUINES 14,736 04:04
121 347 MOUSSAY MATHIEU 00:40:44 SEM 50 00:08:46 00:08:46 Gravelines Triathlon 14,730 04:04
122 532 MALFOY BRUNO 00:40:45 V2M 9 00:08:47 00:05:35 NON LICENCIE 14,724 04:05
123 187 BAUDELET DAVID 00:40:45 SEM 51 00:08:47 00:08:47 ATHLETISME CLUB OUTREAU 14,724 04:05
124 129 VLAMYNCK JEROME 00:40:46 V1M 45 00:08:48 00:08:18 NON LICENCIE 14,718 04:05
125 80 B'AHEU ROMAIN 00:40:46 SEM 52 00:08:48 00:08:48 ATHLETISME CLUB OUTREAU 14,718 04:05
126 133 BOULY JEROME 00:40:47 V1M 46 00:08:49 00:08:19 ATHLETISME CLUB OUTREAU 14,712 04:05
127 331 MALE MICHAEL 00:40:47 V1M 47 00:08:49 00:08:19 SPORT EVASION DES 2 CAPS 14,712 04:05
128 837 LELAN ANNE 00:40:51 SEF 3 00:08:53 00:03:21 NON LICENCIE 14,688 04:05
129 483 GAUTIER ALAIN 00:40:55 SEM 53 00:08:57 00:08:57 A.S. MARCK 14,664 04:05
130 339 FORESTIER ALAIN 00:40:55 V1M 48 00:08:57 00:08:27 AMICALE HOSPITALIERS BOULOGNE 14,664 04:05
131 623 DUFOUR FABRICE 00:40:59 SEM 54 00:09:01 00:09:01 NON LICENCIE 14,640 04:06
132 151 POCHET AURELIEN 00:41:00 SEM 55 00:09:02 00:09:02 BOULOGNE ATHLETIQUE CLUB 14,634 04:06
133 37 RAY SAMUEL 00:41:01 V1M 49 00:09:03 00:08:33 NON LICENCIE 14,628 04:06
134 476 AVOT MARTIN 00:41:02 SEM 56 00:09:04 00:09:04 NON LICENCIE 14,622 04:06
135 111 PAQUES CHRISTOPHE 00:41:04 V1M 50 00:09:06 00:08:36 ATHLETISME CLUB OUTREAU 14,610 04:06
136 32 VAN EENOOGHE FRANCK 00:41:06 V1M 51 00:09:08 00:08:38 OLYMPIQUE GRANDE SYNTHE ATHLETISME 14,599 04:07
137 484 CRESSON PASCAL 00:41:06 V2M 10 00:09:08 00:05:56 MARCK ATHLON 14,599 04:07
138 363 DUMONT LUDOVIC 00:41:09 V1M 52 00:09:11 00:08:41 WIMEREUX RUNNING CLUB 14,581 04:07
139 105 MERLIN LOIC 00:41:10 SEM 57 00:09:12 00:09:12 ATHLETISME CLUB OUTREAU 14,575 04:07
140 507 GAMBART JULIEN 00:41:16 CAM 5 00:09:18 00:07:04 MARQUISE ATHLETISME 14,540 04:08
141 755 BOBEE NATHALIE 00:41:17 V1F 3 00:09:19 00:03:13 ATHLETISME CLUB OUTREAU 14,534 04:08
142 390 MARIQUE BERTRAND 00:41:21 V1M 53 00:09:23 00:08:53 COLEMBERT 14,510 04:08
143 492 GRESSIER OLIVIER 00:41:22 V1M 54 00:09:24 00:08:54 FREVENT OLYMPIC CLUB 14,504 04:08
144 117 THERY ALEXANDRE 00:41:25 SEM 58 00:09:27 00:09:27 ATHLETISME CLUB OUTREAU 14,487 04:09
145 481 MATHIEU EMMANUEL 00:41:25 V2M 11 00:09:27 00:06:15 A.S. MARCK 14,487 04:09
146 449 LEFEBVRE MAXENCE 00:41:25 CAM 6 00:09:27 00:07:13 ATHLETIQUE CLUB CAPELLOIS 14,487 04:09
147 245 BEAUVOIS CHRISTOPHE 00:41:25 SEM 59 00:09:27 00:09:27 TEAMRAKLETTE  14,487 04:09
148 376 MARCOURT GEOFFRAY 00:41:26 SEM 60 00:09:28 00:09:28 NON LICENCIE 14,481 04:09
149 459 WIERRE LAURENT 00:41:31 SEM 61 00:09:33 00:09:33 ATHLETIQUE CLUB CAPELLOIS 14,452 04:09
150 144 LEGRAND OLIVIER 00:41:31 V1M 55 00:09:33 00:09:03 ATHLETISME CLUB OUTREAU 14,452 04:09
151 3 LEMAITRE LAURENT 00:41:32 V1M 56 00:09:34 00:09:04 NON LICENCIE 14,446 04:09
152 106 MINARD MATTHIEU 00:41:33 SEM 62 00:09:35 00:09:35 ATHLETISME CLUB OUTREAU 14,440 04:09
153 310 DIEVAL JACQUES 00:41:34 V1M 57 00:09:36 00:09:06 NON LICENCIE 14,435 04:09
154 372 FLAHAUT DANIEL 00:41:36 V1M 58 00:09:38 00:09:08 LE DRAPEAU 14,423 04:10
155 253 ROBART EDDY 00:41:39 V1M 59 00:09:41 00:09:11 CS NESLES 14,406 04:10
156 480 BAILLY PATRICE 00:41:41 SEM 63 00:09:43 00:09:43 NON LICENCIE 14,394 04:10
157 362 TILLIER LUDOVIC 00:41:41 SEM 64 00:09:43 00:09:43 WIMEREUX RUNNING CLUB 14,394 04:10
158 311 ANSEL SERGE 00:41:42 V2M 12 00:09:44 00:06:32 NON LICENCIE 14,388 04:10
159 286 LIMOUSIN STEPHANE 00:41:42 V1M 60 00:09:44 00:09:14 PATRIOTE CROSS DE GUINES 14,388 04:10
160 410 MOYSE CHRISTOPHE 00:41:43 V1M 61 00:09:45 00:09:15 TOUQUET OPALE ATHLETISME 14,383 04:10
161 733 DUCAMP ELODIE 00:41:43 SEF 4 00:09:45 00:04:13 ATHLETISME CLUB OUTREAU 14,383 04:10
162 544 FOUCAULT SYLVAIN 00:41:44 SEM 65 00:09:46 00:09:46 CULTURE DANSE ETAPLES 14,377 04:10
163 148 ROGERE STEPHANE 00:41:44 V2M 13 00:09:46 00:06:34 ATHLETISME CLUB OUTREAU 14,377 04:10
164 25 SCHUPPE CLOTAIRE 00:41:49 V2M 14 00:09:51 00:06:39 A.S. MARCK 14,348 04:11
165 137 CARON OLIVIER 00:41:53 SEM 66 00:09:55 00:09:55 ATHLETISME CLUB OUTREAU 14,326 04:11
166 297 DUVIEUXBOURG NICOLAS 00:41:53 SEM 67 00:09:55 00:09:55 PATRIOTES CROSS DE GUINES 14,326 04:11
167 591 BOUVOT CYRILLE 00:41:55 SEM 68 00:09:57 00:09:57 NON LICENCIE 14,314 04:12
168 219 STEEN FREDERIC 00:41:57 V1M 62 00:09:59 00:09:29 ARC INTERNATIONAL 14,303 04:12
169 844 LELEU LAETITIA 00:41:57 V1F 4 00:09:59 00:03:53 LE DRAPEAU 14,303 04:12
170 62 LAURENT JOCELYN 00:41:59 V2M 15 00:10:01 00:06:49 NON LICENCIE 14,291 04:12
171 530 POULAIN ADRIEN 00:42:00 V1M 63 00:10:02 00:09:32 ATHLETISME CLUB OUTREAU 14,286 04:12
172 367 FOURNY JEROME 00:42:00 V1M 64 00:10:02 00:09:32 WIMEREUX RUNNING CLUB 14,286 04:12
173 448 LEDOLLEY CHRISTOPHE 00:42:00 V2M 16 00:10:02 00:06:50 ATHLETIQUE CLUB CAPELLOIS 14,286 04:12
174 799 ROUTIER MAUD 00:42:02 SEF 5 00:10:04 00:04:32 PATRIOTES DE GUINES 14,274 04:12
175 194 PAINSET THOMAS 00:42:04 SEM 69 00:10:06 00:10:06 ATHLETISME CLUB OUTREAU 14,263 04:12
176 109 MORICE ARNAUD 00:42:06 V1M 65 00:10:08 00:09:38 ATHLETISME CLUB OUTREAU 14,252 04:13
177 809 DENIS GWENDOLINE 00:42:07 SEF 6 00:10:09 00:04:37 PATRIOTES DE GUINES 14,246 04:13
178 535 PRUVOST ALEXANDRE 00:42:10 SEM 70 00:10:12 00:10:12 AVIRON BOULONNAIS 14,229 04:13
179 71 VERITE CEDRIC 00:42:12 SEM 71 00:10:14 00:10:14 SPORT PLUS 14,218 04:13
180 491 DELAVIEZ JEAN MARC 00:42:14 V2M 17 00:10:16 00:07:04 FREVENT OLYMPIC CLUB 14,207 04:13
181 108 MOREL WILLY 00:42:17 V1M 66 00:10:19 00:09:49 ATHLETISME CLUB OUTREAU 14,190 04:14
182 865 BARROIS CELINE 00:42:19 SEF 7 00:10:21 00:04:49 ATHLETIQUE CLUB CAPELLOIS 14,179 04:14
183 454 NOEL DAVID 00:42:19 V1M 67 00:10:21 00:09:51 ATHLETIQUE CLUB CAPELLOIS 14,179 04:14
184 458 SINNAEVE WILLY 00:42:19 V1M 68 00:10:21 00:09:51 ATHLETIQUE CLUB CAPELLOIS 14,179 04:14
185 103 LHERONDELLE CHRISTOPHER 00:42:21 SEM 72 00:10:23 00:10:23 ATHLETISME CLUB OUTREAU 14,168 04:14
186 54 BORDEZ FRANCK 00:42:23 V2M 18 00:10:25 00:07:13 SPORT PLUS 14,157 04:14
187 84 DAUTREVAUX DAVID 00:42:27 V1M 69 00:10:29 00:09:59 ATHLETISME CLUB OUTREAU 14,134 04:15
188 636 GOEURY CHARLES-HENRI 00:42:27 SEM 73 00:10:29 00:10:29 NON LICENCIE 14,134 04:15
189 490 LEFEVRE PHILIPPE 00:42:27 V1M 70 00:10:29 00:09:59 SAINT MARTIN ATHLETISME 14,134 04:15
190 201 WIDEHEM FREDERIC 00:42:29 V1M 71 00:10:31 00:10:01 ATHLETISME CLUB OUTREAU 14,123 04:15
191 115 SART THIERRY 00:42:32 V2M 19 00:10:34 00:07:22 ATHLETISME CLUB OUTREAU 14,107 04:15
192 509 MAHE FREDERIC 00:42:33 SEM 74 00:10:35 00:10:35 MARQUISE ATHLETISME 14,101 04:15
193 622 DEVIN FRANCOIS 00:42:36 SEM 75 00:10:38 00:10:38 NON LICENCIE 14,085 04:16
194 183 KRONUS JOEL 00:42:38 V2M 20 00:10:40 00:07:28 SAINT MARTIN ATHLETISME 14,073 04:16
195 556 GENSANE FABRICE 00:42:44 V1M 72 00:10:46 00:10:16 NON LICENCIE 14,041 04:16
196 438 DAGNEAUX FABIEN 00:42:45 V1M 73 00:10:47 00:10:17 MARQUISE ATHLETISME 14,035 04:16
197 547 BADON EMMANUEL 00:42:48 SEM 76 00:10:50 00:10:50 NON LICENCIE 14,019 04:17
198 350 BELLOY JEAN-FRANCOIS 00:42:48 SEM 77 00:10:50 00:10:50 NON LICENCIE 14,019 04:17
199 198 SOLON LAURENT 00:42:49 SEM 78 00:10:51 00:10:51 ATHLETISME CLUB OUTREAU 14,013 04:17
200 255 HUTIN LUDOVIC 00:42:51 SEM 79 00:10:53 00:10:53 NON LICENCIE 14,002 04:17
201 493 BALY SYLVAIN 00:42:51 SEM 80 00:10:53 00:10:53 NON LICENCIE 14,002 04:17
202 343 ETIENNE FRANCOIS 00:42:52 JUM 5 00:10:54 00:10:43 NON LICENCIE 13,997 04:17
203 543 DEGROOTE BENJAMIN 00:42:52 SEM 81 00:10:54 00:10:54 AVIRON BOULONNAIS 13,997 04:17
204 425 HARDY FABIEN 00:42:54 V1M 74 00:10:56 00:10:26 NON LICENCIE 13,986 04:17
205 566 CONDETTE MICKAEL 00:42:57 SEM 82 00:10:59 00:10:59 NON LICENCIE 13,970 04:18
206 446 LANGLOIS FREDERIC 00:42:58 V1M 75 00:11:00 00:10:30 ATHLETIQUE CLUB CAPELLOIS 13,964 04:18
207 101 LELAN CEDRIC 00:43:00 V1M 76 00:11:02 00:10:32 ATHLETISME CLUB OUTREAU 13,953 04:18
208 487 GIROUD FRANCK 00:43:02 V1M 77 00:11:04 00:10:34 A.S. MARCK 13,943 04:18
209 660 PHILIS JACQUES 00:43:05 V3M 3 00:11:07 00:04:23 TOUQUET OPALE ATHLETISME 13,926 04:19
210 283 DUVAL ROMAIN 00:43:06 SEM 83 00:11:08 00:11:08 ATHLETISME CLUB OUTREAU 13,921 04:19
211 648 BAGCI MEHMET 00:43:07 SEM 84 00:11:09 00:11:09 LE DRAPEAU 13,916 04:19
212 564 DUCROCQ VALENTIN 00:43:09 CAM 7 00:11:11 00:08:57 NON LICENCIE 13,905 04:19
213 337 PARIS FABIEN 00:43:11 V1M 78 00:11:13 00:10:43 NON LICENCIE 13,894 04:19
214 260 LEBECQ LAURENT 00:43:13 V1M 79 00:11:15 00:10:45 NON LICENCIE 13,884 04:19
215 76 TISSERAND THIBAUT 00:43:15 ESM 6 00:11:17 00:07:53 NON LICENCIE 13,873 04:20
216 340 LEBAS ERIC 00:43:15 V1M 80 00:11:17 00:10:47 AMICALE HOSPITALIERS BOULOGNE 13,873 04:20
217 94 DOCQUOIS FLORIAN 00:43:20 JUM 6 00:11:22 00:11:11 ATHLETISME CLUB OUTREAU 13,846 04:20
218 86 DEBUSSCHERE MIKAEL 00:43:23 SEM 85 00:11:25 00:11:25 ATHLETISME CLUB OUTREAU 13,830 04:20
219 444 FARNWORTH GRAEME 00:43:25 V1M 81 00:11:27 00:10:57 ATHLETIQUE CLUB CAPELLOIS 13,820 04:20
220 605 FRAZER HUGO 00:43:25 SEM 86 00:11:27 00:11:27 LE DRAPEAU 13,820 04:20
221 87 DEFIENNES CLAUDE 00:43:26 V3M 4 00:11:28 00:04:44 ATHLETISME CLUB OUTREAU 13,814 04:21
222 168 LEFRANC OLIVIER 00:43:28 V1M 82 00:11:30 00:11:00 SAINT MARTIN ATHLETISME 13,804 04:21
223 432 BAHEUX JEAN MICHEL 00:43:29 V3M 5 00:11:31 00:04:47 NON LICENCIE 13,798 04:21
224 801 BATILLIOT DOMINIQUE 00:43:30 V2F 1 00:11:32 00:00:00 PATRIOTES DE GUINES 13,793 04:21
225 889 BERDIN VALERIE 00:43:32 V1F 5 00:11:34 00:05:28 NON LICENCIE 13,783 04:21
226 17 FAIT JEAN-PHILIPPE 00:43:33 V1M 83 00:11:35 00:11:05 TOUQUET TRAIL NATURE 13,777 04:21
227 237 CHAMPION BRUNO 00:43:37 V1M 84 00:11:39 00:11:09 NON LICENCIE 13,756 04:22
228 59 JONCQUEL JEAN-PAUL 00:43:37 V2M 21 00:11:39 00:08:27 OPALE TRAIL NATURE 13,756 04:22
229 49 CRETON JULIEN 00:43:38 SEM 87 00:11:40 00:11:40 NON LICENCIE 13,751 04:22
230 443 DEMILLY MATTHIEU 00:43:41 SEM 88 00:11:43 00:11:43 ATHLETIQUE CLUB CAPELLOIS 13,735 04:22
231 149 ROGERE MARC 00:43:43 SEM 89 00:11:45 00:11:45 ATHLETISME CLUB OUTREAU 13,725 04:22
232 152 DUHAMEL GREGOIRE 00:43:46 SEM 90 00:11:48 00:11:48 BOULOGNE ATHLETIQUE CLUB 13,709 04:23
233 354 CONDETTE ANDRE 00:43:48 V2M 22 00:11:50 00:08:38 NON LICENCIE 13,699 04:23
234 602 BABIN NICOLAS 00:43:49 SEM 91 00:11:51 00:11:51 NON LICENCIE 13,693 04:23
235 64 BAILLET CHRISTIAN 00:43:49 V2M 23 00:11:51 00:08:39 SPORT PLUS 13,693 04:23
236 138 CAULIER FREDDY 00:43:53 V2M 24 00:11:55 00:08:43 ATHLETISME CLUB OUTREAU 13,673 04:23
237 33 PAINSET NICOLAS 00:43:54 V1M 85 00:11:56 00:11:26 NON LICENCIE 13,667 04:23
238 662 MAMELIN ANTONY 00:43:54 CAM 8 00:11:56 00:09:42 NON LICENCIE 13,667 04:23
239 276 DUCROCQ MARC-ANTOINE 00:43:55 SEM 92 00:11:57 00:11:57 NON LICENCIE 13,662 04:24
240 440 DUMOUTIER EMMANUEL 00:43:55 SEM 93 00:11:57 00:11:57 NON LICENCIE 13,662 04:24
241 579 CORDONIIER JESSY 00:43:56 SEM 94 00:11:58 00:11:58 NON LICENCIE 13,657 04:24
242 61 DOUCHAIN SEBASTIEN 00:43:56 V1M 86 00:11:58 00:11:28 NON LICENCIE 13,657 04:24
243 585 MILLE SEBASTIEN 00:43:57 SEM 95 00:11:59 00:11:59 TRIATHLON CLUB BOULONNAIS 13,652 04:24
244 349 ETIENNE LEO 00:43:58 ESM 7 00:12:00 00:08:36 NON LICENCIE 13,647 04:24
245 157 GIGADEN FRANCK 00:43:58 V1M 87 00:12:00 00:11:30 NON LICENCIE 13,647 04:24
246 293 QUENNEHEN HERVE 00:43:59 V1M 88 00:12:01 00:11:31 PATRIOTES DE GUINES 13,642 04:24
247 399 BILLIET NICOLAS 00:44:01 V1M 89 00:12:03 00:11:33 NON LICENCIE 13,631 04:24
248 211 SAULNIER FRANCOIS 00:44:04 SEM 96 00:12:06 00:12:06 LE DRAPEAU 13,616 04:24
249 645 LEGALLAIS GUILLAUME 00:44:06 JUM 7 00:12:08 00:11:57 NON LICENCIE 13,605 04:25
250 50 LEROY WANDRILLE 00:44:06 SEM 97 00:12:08 00:12:08 OPALE TRAIL NATURE 13,605 04:25
251 404 GRESSIER YANNICK 00:44:07 V1M 90 00:12:09 00:11:39 TEAM TRAIL 62 13,600 04:25
252 358 RYCKEWAERT XAVIER 00:44:08 SEM 98 00:12:10 00:12:10 WIMEREUX RUNNING CLUB 13,595 04:25
253 504 PAQUE ANTHONY 00:44:09 SEM 99 00:12:11 00:12:11 NON LICENCIE 13,590 04:25
254 638 MULLIEZ AMAURY 00:44:10 SEM 100 00:12:12 00:12:12 NON LICENCIE 13,585 04:25
255 30 CARPENTIER NICOLAS 00:44:11 SEM 101 00:12:13 00:12:13 NON LICENCIE 13,580 04:25
256 447 LEBON RUDY 00:44:12 SEM 102 00:12:14 00:12:14 ATHLETIQUE CLUB CAPELLOIS 13,575 04:25
257 716 VAN EENOOGHE SYLVIE 00:44:14 V1F 6 00:12:16 00:06:10 O.G.S. 13,564 04:25
258 659 BROUSSET PIERRE 00:44:15 SEM 103 00:12:17 00:12:17 NON LICENCIE 13,559 04:26
259 651 ANTHONIOZ FABIEN 00:44:15 SEM 104 00:12:17 00:12:17 CULTURISME CLUB 13,559 04:26
260 736 GIGADEN MATHILDE 00:44:16 SEF 8 00:12:18 00:06:46 ATHLETISME CLUB OUTREAU 13,554 04:26
261 355 CONDETTE MATHIEU 00:44:17 SEM 105 00:12:19 00:12:19 NON LICENCIE 13,549 04:26
262 513 DELPIERRE JEREMY 00:44:17 SEM 106 00:12:19 00:12:19 NON LICENCIE 13,549 04:26
263 227 BRIMEUX LUDOVIC 00:44:18 SEM 107 00:12:20 00:12:20 AMICALE HOSPITALIERS BOULOGNE 13,544 04:26
264 436 DESSENNE BENJAMIN 00:44:19 SEM 108 00:12:21 00:12:21 NON LICENCIE 13,539 04:26
265 521 ROCHE BERNARD 00:44:21 V2M 25 00:12:23 00:09:11 NON LICENCIE 13,529 04:26
266 336 RIFFARD JEAN 00:44:23 V2M 26 00:12:25 00:09:13 OPALE TRAIL NATURE 13,519 04:26
267 74 HODICQ FREDDY 00:44:23 V1M 91 00:12:25 00:11:55 TEAM TRAIL 62 13,519 04:26
268 153 TINTILLIER ERIC 00:44:24 SEM 109 00:12:26 00:12:26 BOULOGNE ATHLETIQUE CLUB 13,514 04:26
269 721 FLOURET LAUGIER STEPHANIE 00:44:24 V1F 7 00:12:26 00:06:20 SPORT PLUS 13,514 04:26
270 307 LEJEUNE FRANCK 00:44:24 V1M 92 00:12:26 00:11:56 NON LICENCIE 13,514 04:26
271 220 TANKERE PHILIPPE 00:44:24 V2M 27 00:12:26 00:09:14 ARC INTERNATIONAL 13,514 04:26
272 657 LEFEBVRE LIONEL 00:44:26 V1M 93 00:12:28 00:11:58 NON LICENCIE 13,503 04:27
273 571 LECLERCQ LAURENT 00:44:26 SEM 110 00:12:28 00:12:28 NON LICENCIE 13,503 04:27
274 300 LEMAITRE NICOLAS 00:44:26 V1M 94 00:12:28 00:11:58 PATRIOTES DE GUINES 13,503 04:27
275 468 BESNIER JEROME 00:44:27 V1M 95 00:12:29 00:11:59 NON LICENCIE 13,498 04:27
276 287 BAILLET DAVID 00:44:28 V1M 96 00:12:30 00:12:00 PATRIOTES DE GUINES 13,493 04:27
277 581 BRUNET DENIS 00:44:29 V3M 6 00:12:31 00:05:47 JOGGING CLUB LICQUOIS 13,488 04:27
278 193 LEMOINE BERNARD 00:44:29 V1M 97 00:12:31 00:12:01 ATHLETISME CLUB OUTREAU 13,488 04:27
279 251 RADENNE CHRISTOPHE 00:44:31 V2M 28 00:12:33 00:09:21 SAINT MARTIN ATHLETISME 13,478 04:27
280 717 PERARD MARIE-CHRISTINE 00:44:31 V2F 2 00:12:33 00:01:01 JOGGING CLUB LICQUOIS 13,478 04:27
281 578 DELATTAIGNANT ARNAUD 00:44:34 V1M 98 00:12:36 00:12:06 NON LICENCIE 13,463 04:27
282 85 DAUTREVAUX WILLIAM 00:44:37 JUM 8 00:12:39 00:12:28 ATHLETISME CLUB OUTREAU 13,448 04:28
283 408 BECQUET DAVID 00:44:37 V1M 99 00:12:39 00:12:09 NON LICENCIE 13,448 04:28
284 329 ROBA VALENTIN 00:44:37 CAM 9 00:12:39 00:10:25 SPORT EVASION DES 2 CAPS 13,448 04:28
285 515 MOREL ALEXANDRE 00:44:40 V1M 100 00:12:42 00:12:12 NON LICENCIE 13,433 04:28
286 386 BOUTILLER MARC 00:44:41 V3M 7 00:12:43 00:05:59 LE DRAPEAU 13,428 04:28
287 593 MALLIOPOULOS XAVIER 00:44:42 V2M 29 00:12:44 00:09:32 BERCK A C O 13,423 04:28
288 881 BARBAUT ISABELLE 00:44:43 V2F 3 00:12:45 00:01:13 A.S. MARCK 13,418 04:28
289 527 CHOCHOIS GREGORY 00:44:46 SEM 111 00:12:48 00:12:48 NON LICENCIE 13,403 04:29
290 95 DUFOUR ANTOINE 00:44:46 ESM 8 00:12:48 00:09:24 ATHLETISME CLUB OUTREAU 13,403 04:29
291 190 JUSTIN LUCIEN 00:44:46 V3M 8 00:12:48 00:06:04 ATHLETISME CLUB OUTREAU 13,403 04:29
292 374 DOCQUOIS MICHEL 00:44:51 V1M 101 00:12:53 00:12:23 LE DRAPEAU 13,378 04:29
293 650 BONNEL TANGUY 00:44:52 JUM 9 00:12:54 00:12:43 NON LICENCIE 13,373 04:29
294 313 GODET JEROME 00:44:53 V1M 102 00:12:55 00:12:25 NON LICENCIE 13,368 04:29
295 116 SENECHAL SEBASTIEN 00:44:53 V1M 103 00:12:55 00:12:25 ATHLETISME CLUB OUTREAU 13,368 04:29
296 91 DESACHY DAVID 00:44:54 V1M 104 00:12:56 00:12:26 ATHLETISME CLUB OUTREAU 13,363 04:29
297 910 POSTA JULIETTE 00:44:55 SEF 9 00:12:57 00:07:25 NON LICENCIE 13,358 04:30
298 63 BERTOUX GUILLAUME 00:44:55 SEM 112 00:12:57 00:12:57 NON LICENCIE 13,358 04:30
299 16 APHERVE REGIS 00:44:55 V1M 105 00:12:57 00:12:27 LE DRAPEAU 13,358 04:30
300 200 WATTEZ ERIC 00:44:55 V2M 30 00:12:57 00:09:45 ATHLETISME CLUB OUTREAU 13,358 04:30
301 304 GAVOIS ROGER 00:44:56 V1M 106 00:12:58 00:12:28 PATRIOTES DE GUINES 13,353 04:30
302 477 DEBOVE GEOFFREY 00:44:57 SEM 113 00:12:59 00:12:59 NON LICENCIE 13,348 04:30
303 163 FONTAINE FREDERIC 00:44:57 V1M 107 00:12:59 00:12:29 NON LICENCIE 13,348 04:30
304 465 CROMBEZ SEBASTIEN 00:44:59 V1M 108 00:13:01 00:12:31 NON LICENCIE 13,338 04:30
305 104 MAILLOT JEAN-LOUIS 00:44:59 V2M 31 00:13:01 00:09:49 ATHLETISME CLUB OUTREAU 13,338 04:30
306 510 PIERRU JULIEN 00:45:00 SEM 114 00:13:02 00:13:02 MARQUISE ATHLETISME 13,333 04:30
307 100 LASSALLE PASCAL 00:45:00 V1M 109 00:13:02 00:12:32 ATHLETISME CLUB OUTREAU 13,333 04:30
308 574 BODART LUDOVIC 00:45:01 SEM 115 00:13:03 00:13:03 NON LICENCIE 13,328 04:30
309 900 TARTART SYLVIE 00:45:03 V1F 8 00:13:05 00:06:59 PATRIOTES DE GUINES 13,319 04:30
310 66 BUTEL DANIEL 00:45:04 V2M 32 00:13:06 00:09:54 SPORT PLUS 13,314 04:30
311 456 OVION SYLVESTRE 00:45:04 V1M 110 00:13:06 00:12:36 ATHLETIQUE CLUB CAPELLOIS 13,314 04:30
312 441 BREQUEVILLE LIONEL 00:45:04 V1M 111 00:13:06 00:12:36 ATHLETIQUE CLUB CAPELLOIS 13,314 04:30
313 378 CAMBIER DAVID 00:45:04 SEM 116 00:13:06 00:13:06 LE DRAPEAU 13,314 04:30
314 439 THUILLIEZ VICTOR 00:45:05 CAM 10 00:13:07 00:10:53 NON LICENCIE 13,309 04:30
315 295 PROTIN ANDREA 00:45:07 CAM 11 00:13:09 00:10:55 PATRIOTES DE GUINES 13,299 04:31
316 243 DAGNEAUX JULIEN 00:45:07 SEM 117 00:13:09 00:13:09 TEAMRAKLETTE  13,299 04:31
317 184 PERARD FREDDY 00:45:10 V2M 33 00:13:12 00:10:00 SAINT MARTIN ATHLETISME 13,284 04:31
318 126 LECOCQ MATTHIEU 00:45:12 JUM 10 00:13:14 00:13:03 NON LICENCIE 13,274 04:31
319 147 ROBERT DAVID 00:45:13 V1M 112 00:13:15 00:12:45 ATHLETISME CLUB OUTREAU 13,269 04:31
320 238 MIRMONT REMI 00:45:16 SEM 118 00:13:18 00:13:18 LE DRAPEAU 13,255 04:32
321 173 HARDOUIN JEAN-FRANCOIS 00:45:16 V1M 113 00:13:18 00:12:48 SAINT MARTIN ATHLETISME 13,255 04:32
322 516 DELATTRE GUILLAUME 00:45:18 SEM 119 00:13:20 00:13:20 NON LICENCIE 13,245 04:32
323 169 HERBEZ JOSE 00:45:21 V3M 9 00:13:23 00:06:39 SAINT MARTIN ATHLETISME 13,230 04:32
324 849 NAJMI AICHA 00:45:24 V1F 9 00:13:26 00:07:20 LE DRAPEAU 13,216 04:32
325 381 DAMIENS PHILIPPE 00:45:25 V1M 114 00:13:27 00:12:57 LE DRAPEAU 13,211 04:32
326 55 METTIER JEAN-FRANCOIS 00:45:27 V1M 115 00:13:29 00:12:59 SPORT PLUS 13,201 04:33
327 663 TIRMARCHE ANTOINE 00:45:28 JUM 11 00:13:30 00:13:19 PATRIOTES DE GUINES 13,196 04:33
328 666 DRUON XAVIER 00:45:29 V1M 116 00:13:31 00:13:01 NON LICENCIE 13,192 04:33
329 445 HOLUIGUE FREDERIC 00:45:33 SEM 120 00:13:35 00:13:35 ATHLETIQUE CLUB CAPELLOIS 13,172 04:33
330 270 BALY ADRIEN 00:45:35 SEM 121 00:13:37 00:13:37 NON LICENCIE 13,163 04:34
331 158 CRETEL LAURENT 00:45:36 V1M 117 00:13:38 00:13:08 C.S. NESLES 13,158 04:34
332 113 PODEVIN JEAN-PIERRE 00:45:36 V2M 34 00:13:38 00:10:26 ATHLETISME CLUB OUTREAU 13,158 04:34
333 332 MONTIGNY DIMITRI 00:45:39 SEM 122 00:13:41 00:13:41 SPORT EVASION DES 2 CAPS 13,143 04:34
334 143 HOCQ BRUNO 00:45:40 V1M 118 00:13:42 00:13:12 ATHLETISME CLUB OUTREAU 13,139 04:34
335 819 GRASSELLI SABRINA 00:45:40 SEF 10 00:13:42 00:08:10 ATHLETISME CLUB OUTREAU 13,139 04:34
336 550 CANNIE FRANCK 00:45:41 V1M 119 00:13:43 00:13:13 NON LICENCIE 13,134 04:34
337 70 SEGUIN DIDIER 00:45:47 V2M 35 00:13:49 00:10:37 SPORT PLUS 13,105 04:35
338 58 JUSTIN FREDERIC 00:45:53 SEM 123 00:13:55 00:13:55 NON LICENCIE 13,077 04:35
339 652 NEYRINCK XAVIER 00:45:53 V1M 120 00:13:55 00:13:25 NON LICENCIE 13,077 04:35
340 53 MAUGUIERE JACQUES 00:45:54 V3M 10 00:13:56 00:07:12 NON LICENCIE 13,072 04:35
341 388 TINTILLIER ERIC 00:45:56 V1M 121 00:13:58 00:13:28 COLEMBERT 13,062 04:36
342 759 MINET CORENTINE 00:45:57 CAF 1 00:13:59 00:00:00 ATHLETISME CLUB OUTREAU 13,058 04:36
343 580 GRESSIER JESSY 00:45:59 ESM 9 00:14:01 00:10:37 NON LICENCIE 13,048 04:36
344 461 MOLMY DAVID 00:45:59 V1M 122 00:14:01 00:13:31 NON LICENCIE 13,048 04:36
345 275 DEFACHELLES HERVE 00:46:02 V1M 123 00:14:04 00:13:34 NON LICENCIE 13,034 04:36
346 90 DEMBREMENT STEPHANE 00:46:04 V1M 124 00:14:06 00:13:36 ATHLETISME CLUB OUTREAU 13,025 04:36
347 455 BUCHER ERIC 00:46:06 V1M 125 00:14:08 00:13:38 PATRIOTES DE GUINES 13,015 04:37
348 288 LEFEBVRE ARNAUD 00:46:08 SEM 124 00:14:10 00:14:10 PATRIOTES DE GUINES 13,006 04:37
349 176 CHALOT KEVIN 00:46:11 SEM 125 00:14:13 00:14:13 SAINT MARTIN ATHLETISME 12,992 04:37
350 588 LEFEVRE PIERRE-GILLES 00:46:12 V1M 126 00:14:14 00:13:44 NON LICENCIE 12,987 04:37
351 164 SAINT GEORGES FRANCK 00:46:12 V1M 127 00:14:14 00:13:44 SAINT MARTIN ATHLETISME 12,987 04:37
352 639 LEBLOND GUILLAUME 00:46:13 SEM 126 00:14:15 00:14:15 NON LICENCIE 12,982 04:37
353 60 JANDAU FABIEN 00:46:14 SEM 127 00:14:16 00:14:16 NON LICENCIE 12,978 04:37
354 272 BEGUE YANNICK 00:46:15 V1M 128 00:14:17 00:13:47 NON LICENCIE 12,973 04:37
355 832 GREMONT SOPHIE 00:46:16 V1F 10 00:14:18 00:08:12 TOUQUET OPALE ATHLETISME 12,968 04:38
356 887 MAY CLAUDIE 00:46:17 V1F 11 00:14:19 00:08:13 MARQUISE ATHLETISME 12,964 04:38
357 309 DUBRULLE JEAN-MICHEL 00:46:20 V1M 129 00:14:22 00:13:52 NON LICENCIE 12,950 04:38
358 800 BONNET POMME 00:46:21 SEF 11 00:14:23 00:08:51 PATRIOTES CROSS DE GUINES 12,945 04:38
359 803 DENEZ ANNE-SOPHIE 00:46:22 V1F 12 00:14:24 00:08:18 PATRIOTES DE GUINES 12,940 04:38
360 232 LOEUILLEUX BERTRAND 00:46:22 V2M 36 00:14:24 00:11:12 AMICALE HOSPITALIERS BOULOGNE 12,940 04:38
361 874 HERBER EMILIE 00:46:24 SEF 12 00:14:26 00:08:54 SO CALAIS 12,931 04:38
362 488 GEST PATRICE 00:46:27 V1M 130 00:14:29 00:13:59 A.S. MARCK 12,917 04:39
363 191 LEBURGUE GUILLAUME 00:46:29 SEM 128 00:14:31 00:14:31 ATHLETISME CLUB OUTREAU 12,908 04:39
364 359 GARENAUX FRANCOIS 00:46:29 V1M 131 00:14:31 00:14:01 WIMEREUX RUNNING CLUB 12,908 04:39
365 269 GENCE MICHEL 00:46:31 V2M 37 00:14:33 00:11:21 NON LICENCIE 12,899 04:39
366 859 GOLDMAN PERRINE 00:46:33 ESF 1 00:14:35 00:00:00 USVA ATHLETISME 12,889 04:39
367 615 MATHUREL FREDERIC 00:46:33 SEM 129 00:14:35 00:14:35 BACO 12,889 04:39
368 356 CONDETTE CLAUDE 00:46:37 V2M 38 00:14:39 00:11:27 NON LICENCIE 12,871 04:40
369 174 KORBER CHRISTIAN 00:46:37 V3M 11 00:14:39 00:07:55 SAINT MARTIN ATHLETISME 12,871 04:40
370 202 RENARD JULIEN 00:46:40 SEM 130 00:14:42 00:14:42 ATHLETISME CLUB OUTREAU 12,857 04:40
371 294 PROTIN OLIVIER 00:46:40 V1M 132 00:14:42 00:14:12 PATRIOTES DE GUINES 12,857 04:40
372 203 LIBERT ERIC 00:46:41 V2M 39 00:14:43 00:11:31 ATHLETISME CLUB OUTREAU 12,853 04:40
373 729 BUTEL MARIE 00:46:44 SEF 13 00:14:46 00:09:14 NON LICENCIE 12,839 04:40
374 75 BAILLY JULIEN 00:46:44 SEM 131 00:14:46 00:14:46 NON LICENCIE 12,839 04:40
375 209 BECUE LUCAS 00:46:48 CAM 12 00:14:50 00:12:36 NON LICENCIE 12,821 04:41
376 545 LEGRAND CEDRIC 00:46:48 SEM 132 00:14:50 00:14:50 NON LICENCIE 12,821 04:41
377 273 LEROUGE DAVID 00:46:52 V1M 133 00:14:54 00:14:24 C.S. NESLES 12,802 04:41
378 230 FLEURY CEDRIC 00:46:56 V1M 134 00:14:58 00:14:28 AMICALE HOSPITALIERS BOULOGNE 12,784 04:42
379 392 DETHOOR DOMINIQUE 00:47:02 V2M 40 00:15:04 00:11:52 COLEMBERT 12,757 04:42
380 452 MAGNIER GERALD 00:47:04 V1M 135 00:15:06 00:14:36 ATHLETIQUE CLUB CAPELLOIS 12,748 04:42
381 48 BOURBIAUX MICHEL 00:47:04 V3M 12 00:15:06 00:08:22 JOGGING CLUB LICQUOIS 12,748 04:42
382 567 DELANOY ALEXANDRE 00:47:07 SEM 133 00:15:09 00:15:09 NON LICENCIE 12,734 04:43
383 14 DEBOVE DAVID 00:47:08 V1M 136 00:15:10 00:14:40 CS NESLES 12,730 04:43
384 221 DUHAMEL VINCENT 00:47:10 V1M 137 00:15:12 00:14:42 C.S. NESLES 12,721 04:43
385 312 DEWEER NICOLAS 00:47:11 SEM 134 00:15:13 00:15:13 NON LICENCIE 12,716 04:43
386 538 HONVAULT AURELIEN 00:47:12 SEM 135 00:15:14 00:15:14 NON LICENCIE 12,712 04:43
387 5 CHARTAUX RAPHAEL 00:47:12 V1M 138 00:15:14 00:14:44 CS NESLES 12,712 04:43
388 167 BARRAS PHILIPPE 00:47:14 V3M 13 00:15:16 00:08:32 SAINT MARTIN ATHLETISME 12,703 04:43
389 496 LELEU AMORY 00:47:15 SEM 136 00:15:17 00:15:17 NON LICENCIE 12,698 04:44
390 247 NASLIN JULIEN 00:47:22 SEM 137 00:15:24 00:15:24 TEAMRAKLETTE  12,667 04:44
391 246 RIVET NICOLAS 00:47:22 V1M 139 00:15:24 00:14:54 TEAMRAKLETTE  12,667 04:44
392 618 OUINEZ ALI 00:47:25 V2M 41 00:15:27 00:12:15 BACO 12,654 04:45
393 614 MACQUET PATRICK 00:47:26 V2M 42 00:15:28 00:12:16 BACO 12,649 04:45
394 305 HENQUEZ YVES 00:47:26 V4M 1 00:15:28 00:00:00 PATRIOTES DE GUINES 12,649 04:45
395 41 BEGUE THIERRY 00:47:28 V1M 140 00:15:30 00:15:00 JOGGING CLUB LICQUOIS 12,640 04:45
396 9 HENEBEL LUC 00:47:31 V1M 141 00:15:33 00:15:03 NON LICENCIE 12,627 04:45
397 68 DULOT ERIC 00:47:31 V2M 43 00:15:33 00:12:21 SPORT PLUS 12,627 04:45
398 703 MARIETTE YVETTE 00:47:33 V2F 4 00:15:35 00:04:03 LE DRAPEAU 12,618 04:45
399 812 COHEN-SOLAL LAURENCE 00:47:35 V2F 5 00:15:37 00:04:05 JOGGING CLUB LICQUOIS 12,609 04:46
400 212 CLEMENT ERIC 00:47:36 V1M 142 00:15:38 00:15:08 NON LICENCIE 12,605 04:46
401 10 LAVERDURE PASCAL 00:47:37 V2M 44 00:15:39 00:12:27 ATHLETISME CLUB OUTREAU 12,601 04:46
402 67 DECOTTE GERARD 00:47:38 V2M 45 00:15:40 00:12:28 SPORT PLUS 12,596 04:46
403 897 LAMARE CATHIE 00:47:39 V1F 13 00:15:41 00:09:35 NON LICENCIE 12,592 04:46
404 223 MARQUIS ALAIN 00:47:40 V2M 46 00:15:42 00:12:30 NON LICENCIE 12,587 04:46
405 668 SIABAS JEAN-MICHEL 00:47:43 V2M 47 00:15:45 00:12:33 SAINT MARTIN ATHLETISME 12,574 04:46
406 119 BLARET LAURENT 00:47:44 V1M 143 00:15:46 00:15:16 NON LICENCIE 12,570 04:46
407 205 DEFOSSE ALEXANDRE 00:47:47 SEM 138 00:15:49 00:15:49 SAINT MARTIN ATHLETISME 12,557 04:47
408 805 BECQUET KARINE 00:47:48 V1F 14 00:15:50 00:09:44 PATRIOTES DE GUINES 12,552 04:47
409 281 MARTEL ERIC 00:47:49 V2M 48 00:15:51 00:12:39 TEAM TRAIL 62 12,548 04:47
410 546 GRENON ERIC 00:47:50 V1M 144 00:15:52 00:15:22 NON LICENCIE 12,544 04:47
411 630 DESPRES PIERRE 00:47:52 SEM 139 00:15:54 00:15:54 SAINT MARTIN ATHLETISME 12,535 04:47
412 373 PAQUES ERIC 00:47:52 V2M 49 00:15:54 00:12:42 LE DRAPEAU 12,535 04:47
413 592 JOUSSE PASCAL 00:47:56 V2M 50 00:15:58 00:12:46 NON LICENCIE 12,517 04:48
414 517 DELATTRE BENOIT 00:47:58 SEM 140 00:16:00 00:16:00 NON LICENCIE 12,509 04:48
415 44 MASCOT CHRISTOPHE 00:47:59 V1M 145 00:16:01 00:15:31 JOGGING CLUB LICQUOIS 12,504 04:48
416 637 COMPIEGNE STEPHANE 00:48:01 SEM 141 00:16:03 00:16:03 NON LICENCIE 12,496 04:48
417 531 GIGADEN EDDY 00:48:01 V1M 146 00:16:03 00:15:33 NON LICENCIE 12,496 04:48
418 364 FONTAINE XAVIER 00:48:04 V2M 51 00:16:06 00:12:54 WIMEREUX RUNNING CLUB 12,483 04:48
419 348 FOUCAULT PASCAL 00:48:05 V2M 52 00:16:07 00:12:55 NON LICENCIE 12,478 04:48
420 478 BAUDELET DAVY 00:48:06 SEM 142 00:16:08 00:16:08 NON LICENCIE 12,474 04:49
421 82 BOUHASSOUN MEHDI 00:48:07 V1M 147 00:16:09 00:15:39 ATHLETISME CLUB OUTREAU 12,470 04:49
422 917 GOURDIN FREDERIQUE 00:48:14 V1F 15 00:16:16 00:10:10 NON LICENCIE 12,440 04:49
423 518 BAHEUX JACKIE 00:48:15 V1M 148 00:16:17 00:15:47 NON LICENCIE 12,435 04:50
424 159 ROBART GUILLAUME 00:48:16 SEM 143 00:16:18 00:16:18 CS NESLES 12,431 04:50
425 647 PETIT VALENTIN 00:48:18 JUM 12 00:16:20 00:16:09 NON LICENCIE 12,422 04:50
426 839 PITTEN JOANNE 00:48:19 SEF 14 00:16:21 00:10:49 LE DRAPEAU 12,418 04:50
427 389 ROUSSEL STEPHANE 00:48:19 V2M 53 00:16:21 00:13:09 COLEMBERT 12,418 04:50
428 99 LANGAGNE GAETAN 00:48:20 SEM 144 00:16:22 00:16:22 ATHLETISME CLUB OUTREAU 12,414 04:50
429 828 SPILMONT HELENE 00:48:21 SEF 15 00:16:23 00:10:51 WIMEREUX RUNNING CLUB 12,410 04:50
430 589 DESTREZ CHRISTOPHE 00:48:22 V1M 149 00:16:24 00:15:54 NON LICENCIE 12,405 04:50
431 396 LEGRAND GREGORY 00:48:23 SEM 145 00:16:25 00:16:25 NON LICENCIE 12,401 04:50
432 612 GAILLOT ROMAIN 00:48:24 SEM 146 00:16:26 00:16:26 NON LICENCIE 12,397 04:50
433 186 BRUNEL SERGE 00:48:27 V3M 14 00:16:29 00:09:45 SAINT MARTIN ATHLETISME 12,384 04:51
434 407 FASQUEL GREGORY 00:48:27 SEM 147 00:16:29 00:16:29 NON LICENCIE 12,384 04:51
435 720 BRIDOUX CHRISTINE 00:48:29 V1F 16 00:16:31 00:10:25 SPORT PLUS 12,375 04:51
436 727 DULOT PASCALINE 00:48:29 V1F 17 00:16:31 00:10:25 SPORT PLUS 12,375 04:51
437 292 ETCHEPARE JEAN-PHILIPPE 00:48:30 SEM 148 00:16:32 00:16:32 PATRIOTES DE GUINES 12,371 04:51
438 422 LEFEBVRE STEPHANE 00:48:32 V1M 150 00:16:34 00:16:04 NON LICENCIE 12,363 04:51
439 570 MOREL CHRISTOPHER 00:48:34 SEM 149 00:16:36 00:16:36 NON LICENCIE 12,354 04:51
440 621 LEHON GILLES 00:48:35 V2M 54 00:16:37 00:13:25 NON LICENCIE 12,350 04:52
441 916 PETA JEANNE ESTELLE 00:48:38 V1F 18 00:16:40 00:10:34 LE DRAPEAU 12,337 04:52
442 558 HENAUT CEDRIC 00:48:41 V1M 151 00:16:43 00:16:13 NON LICENCIE 12,325 04:52
443 584 LAURENT GILLES 00:48:42 V1M 152 00:16:44 00:16:14 NON LICENCIE 12,320 04:52
444 520 EVRARD JEREMIE 00:48:43 JUM 13 00:16:45 00:16:34 NON LICENCIE 12,316 04:52
445 280 BETREMA FLORENT 00:48:44 SEM 150 00:16:46 00:16:46 NON LICENCIE 12,312 04:52
446 642 MARGOLLE CHRISTOPHE 00:48:45 V1M 153 00:16:47 00:16:17 NON LICENCIE 12,308 04:52
447 725 RAY ISABELLE 00:48:45 V1F 19 00:16:47 00:10:41 CULTURE DANSE ETAPLES 12,308 04:52
448 160 ROBART FRANCOIS 00:48:45 V2M 55 00:16:47 00:13:35 CS NESLES 12,308 04:52
449 122 DELDREVE MICHAEL 00:48:47 SEM 151 00:16:49 00:16:49 NON LICENCIE 12,299 04:53
450 548 MILLE FRANCIS 00:48:47 V2M 56 00:16:49 00:13:37 NON LICENCIE 12,299 04:53
451 802 LEBRUN CAROLINE 00:48:47 SEF 16 00:16:49 00:11:17 PATRIOTES CROSS DE GUINES 12,299 04:53
452 81 BERNARD MICHAEL 00:48:49 V1M 154 00:16:51 00:16:21 ATHLETISME CLUB OUTREAU 12,291 04:53
453 43 CONDETTE JONATHAN 00:48:51 SEM 152 00:16:53 00:16:53 NON LICENCIE 12,282 04:53
454 18 LENGLET BRUNO 00:48:53 V1M 155 00:16:55 00:16:25 NON LICENCIE 12,274 04:53
455 327 NORMANT REMI 00:48:55 SEM 153 00:16:57 00:16:57 NON LICENCIE 12,266 04:54
456 732 DEBAY MARINE 00:48:55 SEF 17 00:16:57 00:11:25 ATHLETISME CLUB OUTREAU 12,266 04:54
457 383 LEDOUX THIERRY 00:48:55 V1M 156 00:16:57 00:16:27 LE DRAPEAU 12,266 04:54
458 779 NAVET FLORENCE 00:48:57 V1F 20 00:16:59 00:10:53 ATHLETISME CLUB OUTREAU 12,257 04:54
459 559 GRIGNON MICKAEL 00:48:57 SEM 154 00:16:59 00:16:59 NON LICENCIE 12,257 04:54
460 706 HOLUIGUE SABINE 00:48:57 V1F 21 00:16:59 00:10:53 ATHLETIQUE CLUB CAPELLOIS 12,257 04:54
461 78 LESAFFRE CHRISTOPHE 00:48:57 V1M 157 00:16:59 00:16:29 NON LICENCIE 12,257 04:54
462 806 KILPATRICK JESSICA 00:48:59 SEF 18 00:17:01 00:11:29 PATRIOTES CROSS DE GUINES 12,249 04:54
463 335 FREZEL ROMAIN 00:49:06 CAM 13 00:17:08 00:14:54 OPALE TRAIL NATURE 12,220 04:55
464 262 DEBAS GERARD 00:49:08 V3M 15 00:17:10 00:10:26 NON LICENCIE 12,212 04:55
465 519 EVRAD LUC 00:49:11 V1M 158 00:17:13 00:16:43 NON LICENCIE 12,199 04:55
466 796 LIMASCON SANDRINE 00:49:11 SEF 19 00:17:13 00:11:41 NON LICENCIE 12,199 04:55
467 785 WAVRANT PATRICIA 00:49:11 V1F 22 00:17:13 00:11:07 ATHLETISME CLUB OUTREAU 12,199 04:55
468 170 MALFOY ROMAIN 00:49:12 SEM 155 00:17:14 00:17:14 SAINT MARTIN ATHLETISME 12,195 04:55
469 813 MAILLARD BEATRICE 00:49:13 V1F 23 00:17:15 00:11:09 NON LICENCIE 12,191 04:55
470 96 GOLLIOT DIDIER 00:49:19 V1M 159 00:17:21 00:16:51 ATHLETISME CLUB OUTREAU 12,166 04:56
471 541 DUBOIS MICHAEL 00:49:20 SEM 156 00:17:22 00:17:22 NON LICENCIE 12,162 04:56
472 791 FERNAGUT SANDRINE 00:49:23 SEF 20 00:17:25 00:11:53 ATHLETISME CLUB OUTREAU 12,150 04:56
473 757 DEBOVE SANDRINE 00:49:25 V1F 24 00:17:27 00:11:21 ATHLETISME CLUB OUTREAU 12,142 04:57
474 474 LHERMILLIER FREDDY 00:49:26 V3M 16 00:17:28 00:10:44 TOUQUET OPALE ATHLETISME 12,138 04:57
475 529 MOLMY BENJAMIN 00:49:28 SEM 157 00:17:30 00:17:30 NON LICENCIE 12,129 04:57
476 475 LEGENDRE DAVID 00:49:31 SEM 158 00:17:33 00:17:33 NON LICENCIE 12,117 04:57
477 268 FEUTRY PATRICK 00:49:32 V1M 160 00:17:34 00:17:04 NON LICENCIE 12,113 04:57
478 128 MISEROLLE MATTHIEU 00:49:34 SEM 159 00:17:36 00:17:36 NON LICENCIE 12,105 04:57
479 177 MAQUINGHEN CELINE 00:49:35 SEF 21 00:17:37 00:12:05 SAINT MARTIN ATHLETISME 12,101 04:58
480 895 BIGOT MARIE-CHRISTINE 00:49:36 V2F 6 00:17:38 00:06:06 NON LICENCIE 12,097 04:58
481 424 LEPERCQ FLORENT 00:49:36 V2M 57 00:17:38 00:14:26 LE DRAPEAU 12,097 04:58
482 398 THOREL CYRIL 00:49:37 V1M 161 00:17:39 00:17:09 BERCK A C O 12,093 04:58
483 124 TATANI DYLAN 00:49:37 JUM 14 00:17:39 00:17:28 NON LICENCIE 12,093 04:58
484 869 REGNIER CHRISTINE 00:49:37 V1F 25 00:17:39 00:11:33 ATHLETIQUE CLUB CAPELLOIS 12,093 04:58
485 501 EVRARD DIDIER 00:49:37 V2M 58 00:17:39 00:14:27 NON LICENCIE 12,093 04:58
486 315 NZINZI GHISLAIN 00:49:38 V1M 162 00:17:40 00:17:10 NON LICENCIE 12,089 04:58
487 384 POSTA JEAN-FRANCOIS 00:49:38 V2M 59 00:17:40 00:14:28 LE DRAPEAU 12,089 04:58
488 65 BAILLET ANTOINE 00:49:38 ESM 10 00:17:40 00:14:16 SPORT PLUS 12,089 04:58
489 875 LEGUAY MARIANICK 00:49:39 V1F 26 00:17:41 00:11:35 NON LICENCIE 12,085 04:58
490 165 MALFOY JEAN-PIERRE 00:49:39 V3M 17 00:17:41 00:10:57 SAINT MARTIN ATHLETISME 12,085 04:58
491 528 DUBOIS DOMINIQUE 00:49:39 V1M 163 00:17:41 00:17:11 NON LICENCIE 12,085 04:58
492 369 RAMONET MARC 00:49:40 V2M 60 00:17:42 00:14:30 WIMEREUX RUNNING CLUB 12,081 04:58
493 464 LEDOUX JEREMY 00:49:41 SEM 160 00:17:43 00:17:43 NON LICENCIE 12,076 04:58
494 795 FOURCROY FANNY 00:49:43 V1F 27 00:17:45 00:11:39 NON LICENCIE 12,068 04:58
495 740 LEBON MAGALI 00:49:44 SEF 22 00:17:46 00:12:14 ATHLETISME CLUB OUTREAU 12,064 04:58
496 368 CHEUVA LOIC 00:49:44 V1M 164 00:17:46 00:17:16 WIMEREUX RUNNING CLUB 12,064 04:58
497 216 ROSE FREDERIC 00:49:45 V1M 165 00:17:47 00:17:17 ATHLETISME CLUB OUTREAU 12,060 04:59
498 761 RINGOT STEPHANIE 00:49:46 V1F 28 00:17:48 00:11:42 ATHLETISME CLUB OUTREAU 12,056 04:59
499 586 ARNOUT DAMIEN 00:49:47 SEM 161 00:17:49 00:17:49 NON LICENCIE 12,052 04:59
500 290 LEGROS MANUEL 00:49:47 SEM 162 00:17:49 00:17:49 PATRIOTES CROSS DE GUINES 12,052 04:59
501 207 PETOLAS VALENTIN 00:49:47 SEM 163 00:17:49 00:17:49 NON LICENCIE 12,052 04:59
502 228 BERANGER JEAN-CHARLES 00:49:49 V2M 61 00:17:51 00:14:39 AMICALE HOSPITALIERS BOULOGNE 12,044 04:59
503 829 FICHEUX LUCETTE 00:49:50 V2F 7 00:17:52 00:06:20 TOUQUET OPALE ATHLETISME 12,040 04:59
504 56 STEC FREDERIC 00:49:54 V1M 166 00:17:56 00:17:26 NON LICENCIE 12,024 04:59
505 405 BERTHE PATRICK 00:49:55 V2M 62 00:17:57 00:14:45 NON LICENCIE 12,020 05:00
506 197 SENECHAL NICOLAS 00:49:55 V1M 167 00:17:57 00:17:27 ATHLETISME CLUB OUTREAU 12,020 05:00
507 208 DELAHAYE SEBASTIEN 00:49:57 SEM 164 00:17:59 00:17:59 NON LICENCIE 12,012 05:00
508 258 HEMBERT GREGOIRE 00:49:59 SEM 165 00:18:01 00:18:01 NON LICENCIE 12,004 05:00
509 752 TETARD ISABELLE 00:49:59 V1F 29 00:18:01 00:11:55 NON LICENCIE 12,004 05:00
510 248 BERGAMASCO STEPHANE 00:50:01 V1M 168 00:18:03 00:17:33 TEAMRAKLETTE  11,996 05:00
511 598 BAILLIEU CHRISTIAN 00:50:09 V1M 169 00:18:11 00:17:41 LE DRAPEAU 11,964 05:01
512 646 ALVES DOS SANTOS ROMUALD 00:50:12 SEM 166 00:18:14 00:18:14 NON LICENCIE 11,952 05:01
513 259 DAVID DANY 00:50:13 V1M 170 00:18:15 00:17:45 NON LICENCIE 11,948 05:01
514 783 BOURSAULT HELENE 00:50:20 V1F 30 00:18:22 00:12:16 ATHLETISME CLUB OUTREAU 11,921 05:02
515 302 GARENAUX STEPHANE 00:50:21 V1M 171 00:18:23 00:17:53 PATRIOTES DE GUINES 11,917 05:02
516 471 PRUD'HOMME MICHAEL 00:50:26 V1M 172 00:18:28 00:17:58 NON LICENCIE 11,897 05:03
517 39 DUQUESNOY ARNAUD 00:50:33 SEM 167 00:18:35 00:18:35 NON LICENCIE 11,869 05:03
518 745 MAILLOT MELANIE 00:50:37 ESF 2 00:18:39 00:04:04 ATHLETISME CLUB OUTREAU 11,854 05:04
519 181 MALFOY FRANCOIS 00:50:39 SEM 168 00:18:41 00:18:41 SAINT MARTIN ATHLETISME 11,846 05:04
520 284 DELETOILLE GILLES 00:50:40 SEM 169 00:18:42 00:18:42 NON LICENCIE 11,842 05:04
521 846 GRESSIER DELPHINE 00:50:40 V1F 31 00:18:42 00:12:36 TEAM TRAIL 62 11,842 05:04
522 562 LOUASSE FRANCK 00:50:40 V1M 173 00:18:42 00:18:12 TRIATHLON BOULOGNE 11,842 05:04
523 577 LUTZ RAYNALD 00:50:41 V2M 63 00:18:43 00:15:31 NON LICENCIE 11,838 05:04
524 495 BIET SAMUEL 00:50:43 SEM 170 00:18:45 00:18:45 NON LICENCIE 11,830 05:04
525 123 DUHAMEL DIMITRI 00:50:44 JUM 15 00:18:46 00:18:35 NON LICENCIE 11,827 05:04
526 542 BERNARD MARC 00:50:49 V1M 174 00:18:51 00:18:21 NON LICENCIE 11,807 05:05
527 661 SCHOTTE GERMAIN 00:50:51 CAM 14 00:18:53 00:16:39 NON LICENCIE 11,799 05:05
528 536 GODARD PASCAL 00:50:52 V1M 175 00:18:54 00:18:24 X'TREM TEAM 11,796 05:05
529 862 MOUSSAY EMILIE 00:50:55 SEF 23 00:18:57 00:13:25 NON LICENCIE 11,784 05:06
530 742 LERICHE PATRICIA 00:50:56 V2F 8 00:18:58 00:07:26 ATHLETISME CLUB OUTREAU 11,780 05:06
531 154 DHUEME KEVIN 00:50:58 SEM 171 00:19:00 00:19:00 BOULOGNE ATHLETIQUE CLUB 11,772 05:06
532 226 BRIMEUX PIERRE 00:51:00 V3M 18 00:19:02 00:12:18 AMICALE HOSPITALIERS BOULOGNE 11,765 05:06
533 744 LOUCHET AURELIE 00:51:00 V1F 32 00:19:02 00:12:56 ATHLETISME CLUB OUTREAU 11,765 05:06
534 394 MAES ETIENNE 00:51:01 V2M 64 00:19:03 00:15:51 COLEMBERT 11,761 05:06
535 858 THOMAS MARYLINE 00:51:01 V2F 9 00:19:03 00:07:31 E.S. ARQUES 11,761 05:06
536 804 DENEZ CHRISTELLE 00:51:01 V1F 33 00:19:03 00:12:57 PATRIOTES DE GUINES 11,761 05:06
537 882 LEBLANC LYDIE 00:51:03 V2F 10 00:19:05 00:07:33 A.S. MARCK 11,753 05:06
538 498 SEVESTRE ANTOINE 00:51:09 JUM 16 00:19:11 00:19:00 NON LICENCIE 11,730 05:07
539 838 MARIQUE PERRINE 00:51:10 JUF 1 00:19:12 00:00:00 COLEMBERT 11,726 05:07
540 162 THALMANN NICOLAS 00:51:11 SEM 172 00:19:13 00:19:13 NON LICENCIE 11,723 05:07
541 831 AUBERT MAGALI 00:51:11 SEF 24 00:19:13 00:13:41 ASCADD 11,723 05:07
542 77 CONDETTE JEAN LUC 00:51:13 V3M 19 00:19:15 00:12:31 NON LICENCIE 11,715 05:07
543 409 MAGNIER REGIS 00:51:14 V1M 176 00:19:16 00:18:46 CULTURE DANSE ETAPLES 11,711 05:07
544 326 ETIENNE JEAN-LOUIS 00:51:14 V2M 65 00:19:16 00:16:04 NON LICENCIE 11,711 05:07
545 790 DEVIGNE JOCELYNE 00:51:15 V2F 11 00:19:17 00:07:45 ATHLETISME CLUB OUTREAU 11,707 05:07
546 72 CHOCHOY THIERRY 00:51:15 V2M 66 00:19:17 00:16:05 SPORT PLUS 11,707 05:07
547 749 ROUX FLORENCE 00:51:17 SEF 25 00:19:19 00:13:47 ATHLETISME CLUB OUTREAU 11,700 05:08
548 502 BOULANGHIEN CYRIL 00:51:18 V1M 177 00:19:20 00:18:50 NON LICENCIE 11,696 05:08
549 406 LEPRETRE CLEMENT 00:51:21 SEM 173 00:19:23 00:19:23 TOUQUET OPALE ATHLETISME 11,685 05:08
550 786 VASSEUR CHRISTELE 00:51:24 V1F 34 00:19:26 00:13:20 AMICALE HOSPITALIERS BOULOGNE 11,673 05:08
551 840 HANON LILIANE 00:51:27 V2F 12 00:19:29 00:07:57 LE DRAPEAU 11,662 05:09
552 257 LOUASSE ALEXANDRE 00:51:29 SEM 174 00:19:31 00:19:31 NON LICENCIE 11,654 05:09
553 252 PRUVOT RENAUD 00:51:30 V1M 178 00:19:32 00:19:02 NON LICENCIE 11,650 05:09
554 904 BAILLIEU ROSELINE 00:51:30 SEF 26 00:19:32 00:14:00 NON LICENCIE 11,650 05:09
555 620 SAINT-GEORGES AYMERIC 00:51:31 SEM 175 00:19:33 00:19:33 BOURTHES 11,647 05:09
556 379 CODRON STEPHANE 00:51:33 V1M 179 00:19:35 00:19:05 LE DRAPEAU 11,639 05:09
557 726 DENIS CORINNE 00:51:34 V1F 35 00:19:36 00:13:30 SPORT PLUS 11,635 05:09
558 583 WIART HERVE 00:51:35 V1M 180 00:19:37 00:19:07 NON LICENCIE 11,632 05:10
559 737 GIRAULT VALERIE 00:51:37 V1F 36 00:19:39 00:13:33 ATHLETISME CLUB OUTREAU 11,624 05:10
560 21 PLOUVIN ARNAUD 00:51:38 V1M 181 00:19:40 00:19:10 NON LICENCIE 11,620 05:10
561 704 CHARTAUX SUZEL 00:51:39 V1F 37 00:19:41 00:13:35 CS NESLES 11,617 05:10
562 178 GOSSELIN JEAN-FRANCOIS 00:51:40 V1M 182 00:19:42 00:19:12 SAINT MARTIN ATHLETISME 11,613 05:10
563 606 BLARY JEAN-PAUL 00:51:42 V3M 20 00:19:44 00:13:00 NON LICENCIE 11,605 05:10
564 807 PLATIAU MARIE 00:51:42 SEF 27 00:19:44 00:14:12 PATRIOTES DE GUINES 11,605 05:10
565 561 LEBAS BENOIT 00:51:42 V1M 183 00:19:44 00:19:14 NON LICENCIE 11,605 05:10
566 656 LAMARE CEDRIC 00:51:44 SEM 176 00:19:46 00:19:46 NON LICENCIE 11,598 05:10
567 453 MANCHUELLE STEPHANE 00:51:49 V1M 184 00:19:51 00:19:21 ATHLETIQUE CLUB CAPELLOIS 11,579 05:11
568 709 PLOUVIN PATRICIA 00:51:50 V2F 13 00:19:52 00:08:20 NON LICENCIE 11,576 05:11
569 781 LIBERT MARIE-FRANCE 00:51:52 V3F 1 00:19:54 00:00:00 ATHLETISME CLUB OUTREAU 11,568 05:11
570 387 WALLET DOMINIQUE 00:51:52 V2M 67 00:19:54 00:16:42 COLEMBERT 11,568 05:11
571 788 COUSIN SEVERINE 00:51:57 V1F 38 00:19:59 00:13:53 ATHLETISME CLUB OUTREAU 11,550 05:12
572 397 VAN DOREN MICHEL 00:51:57 V3M 21 00:19:59 00:13:15 TOUQUET OPALE ATHLETISME 11,550 05:12
573 611 JEUMER THIERRY 00:51:57 V2M 68 00:19:59 00:16:47 BACO 11,550 05:12
574 835 LEFEBVRE DENISE 00:51:59 V3F 2 00:20:01 00:00:07 NON LICENCIE 11,542 05:12
575 161 DELANNOY SERGE 00:52:04 V2M 69 00:20:06 00:16:54 NON LICENCIE 11,524 05:12
576 204 LEGRAND FABRICE 00:52:05 V1M 185 00:20:07 00:19:37 NON LICENCIE 11,520 05:13
577 353 WILLAERT JULIEN 00:52:06 SEM 177 00:20:08 00:20:08 NON LICENCIE 11,516 05:13
578 627 LAMOUR MAXIME 00:52:06 SEM 178 00:20:08 00:20:08 NON LICENCIE 11,516 05:13
579 633 FOURCROY DANIEL 00:52:08 V3M 22 00:20:10 00:13:26 NON LICENCIE 11,509 05:13
580 765 SAINT-GEORGES SYLVIE 00:52:11 V1F 39 00:20:13 00:14:07 SAINT MARTIN ATHLETISME 11,498 05:13
581 317 QUIQUET QUENTIN 00:52:16 CAM 15 00:20:18 00:18:04 NON LICENCIE 11,480 05:14
582 385 BLANPAIN NICOLAS 00:52:17 SEM 179 00:20:19 00:20:19 LE DRAPEAU 11,476 05:14
583 266 DEON FABRICE 00:52:19 SEM 180 00:20:21 00:20:21 NON LICENCIE 11,469 05:14
584 658 CONDETTE MICKAEL 00:52:29 SEM 181 00:20:31 00:20:31 NON LICENCIE 11,432 05:15
585 701 MAGNIER BEATRICE 00:52:32 V2F 14 00:20:34 00:09:02 PINK LADIES 11,421 05:15
586 417 SANNIER RUDOLPH 00:52:34 ESM 11 00:20:36 00:17:12 NON LICENCIE 11,414 05:15
587 524 DUFOUR DANY 00:52:35 SEM 182 00:20:37 00:20:37 NON LICENCIE 11,410 05:15
588 769 NEGRI PASCALE 00:52:36 V1F 40 00:20:38 00:14:32 SAINT MARTIN ATHLETISME 11,407 05:16
589 370 JOLIE PASCAL 00:52:37 V2M 70 00:20:39 00:17:27 WIMEREUX RUNNING CLUB 11,403 05:16
590 46 HONVAULT NICOLAS 00:52:46 V1M 186 00:20:48 00:20:18 NON LICENCIE 11,371 05:17
591 523 BOURGAIN YANNICK 00:52:53 SEM 183 00:20:55 00:20:55 NON LICENCIE 11,346 05:17
592 414 MERLIN GEOFFREY 00:52:54 SEM 184 00:20:56 00:20:56 NON LICENCIE 11,342 05:17
593 98 LABRADOR CESAR 00:52:57 V1M 187 00:20:59 00:20:29 ATHLETISME CLUB OUTREAU 11,331 05:18
594 798 MASZOTA DARIA 00:52:58 ESF 3 00:21:00 00:06:25 NON LICENCIE 11,328 05:18
595 539 CREVECOEUR ANTOINE 00:52:58 SEM 185 00:21:00 00:21:00 NON LICENCIE 11,328 05:18
596 338 TREDEZ THEO 00:52:59 CAM 16 00:21:01 00:18:47 NON LICENCIE 11,324 05:18
597 842 LEBEGUE THERESE 00:52:59 V2F 15 00:21:01 00:09:29 LE DRAPEAU 11,324 05:18
598 776 COPPIN MARGOT 00:53:03 CAF 2 00:21:05 00:07:06 ATHLETISME CLUB OUTREAU 11,310 05:18
599 821 MAGRIT SANDRA 00:53:03 SEF 28 00:21:05 00:15:33 SPORT EVASION DES 2 CAPS 11,310 05:18
600 754 VLAMYNCK CAROLINE 00:53:14 SEF 29 00:21:16 00:15:44 NON LICENCIE 11,271 05:19
601 762 ROGERE KATY 00:53:17 V1F 41 00:21:19 00:15:13 ATHLETISME CLUB OUTREAU 11,261 05:20
602 853 DU SOULIER CARINE 00:53:22 V1F 42 00:21:24 00:15:18 NON LICENCIE 11,243 05:20
603 778 HANQUEZ DOROTHEE 00:53:23 SEF 30 00:21:25 00:15:53 ATHLETISME CLUB OUTREAU 11,239 05:20
604 876 GERME MYRIAM 00:53:23 V2F 16 00:21:25 00:09:53 SAINT MARTIN ATHLETISME 11,239 05:20
605 854 GUILBERT ANNE 00:53:26 V1F 43 00:21:28 00:15:22 NON LICENCIE 11,229 05:21
606 907 CHOPIN ISABELLE 00:53:28 V1F 44 00:21:30 00:15:24 BACO 11,222 05:21
607 314 DEFIEZ THOMAS 00:53:29 SEM 186 00:21:31 00:21:31 NON LICENCIE 11,218 05:21
608 400 LALLEMENT XAVIER 00:53:30 SEM 187 00:21:32 00:21:32 NON LICENCIE 11,215 05:21
609 830 QUANDALLE CECILE 00:53:33 SEF 31 00:21:35 00:16:03 CULTURE DANSE ETAPLES 11,204 05:21
610 867 LEBON AUDREY 00:53:34 SEF 32 00:21:36 00:16:04 ATHLETIQUE CLUB CAPELLOIS 11,201 05:21
611 13 CARDON FRANCK 00:53:35 V1M 188 00:21:37 00:21:07 LE DRAPEAU 11,198 05:21
612 494 PERSYN STEPHANE 00:53:35 V2M 71 00:21:37 00:18:25 NON LICENCIE 11,198 05:21
613 254 BOLZAN DAVID 00:53:38 V1M 189 00:21:40 00:21:10 NON LICENCIE 11,187 05:22
614 643 REY PHILIPPE 00:53:46 V3M 23 00:21:48 00:15:04 NON LICENCIE 11,159 05:23
615 222 BEAUDRAPS PASCAL 00:53:47 V2M 72 00:21:49 00:18:37 NON LICENCIE 11,156 05:23
616 866 HOLUIGUE VIRGINIE 00:53:48 SEF 33 00:21:50 00:16:18 ATHLETIQUE CLUB CAPELLOIS 11,152 05:23
617 850 FAUQUEMBERGUE VERONIQUE 00:53:52 V1F 45 00:21:54 00:15:48 LE DRAPEAU 11,139 05:23
618 499 CLAISSE GUILLAUME 00:53:57 V1M 190 00:21:59 00:21:29 NON LICENCIE 11,121 05:24
619 553 LEPRETRE JULIEN 00:53:58 SEM 188 00:22:00 00:22:00 NON LICENCIE 11,118 05:24
620 855 LELEU MARIE 00:54:00 JUF 2 00:22:02 00:02:50 PATRIOTES DE GUINES 11,111 05:24
621 19 BEAUGRAND FABRICE 00:54:09 V1M 191 00:22:11 00:21:41 NON LICENCIE 11,080 05:25
622 40 NAVET LAURENT 00:54:11 V1M 192 00:22:13 00:21:43 NON LICENCIE 11,074 05:25
623 557 LEROUGE SEBASTIEN 00:54:12 V1M 193 00:22:14 00:21:44 NON LICENCIE 11,070 05:25
624 782 PLOUVIN ESTELLE 00:54:12 V1F 46 00:22:14 00:16:08 OSM LOMME ATHLETISME 11,070 05:25
625 617 LEMAITRE GEORGES 00:54:12 V3M 24 00:22:14 00:15:30 BACO 11,070 05:25
626 503 GRARE AURELIEN 00:54:14 SEM 189 00:22:16 00:22:16 NON LICENCIE 11,063 05:25
627 820 FREZEL NADIA 00:54:18 SEF 34 00:22:20 00:16:48 NON LICENCIE 11,050 05:26
628 420 CHASSOT MEHDI 00:54:19 V1M 194 00:22:21 00:21:51 NON LICENCIE 11,046 05:26
629 28 LAFITTE DIDIER 00:54:21 V2M 73 00:22:23 00:19:11 NON LICENCIE 11,040 05:26
630 600 BUTEL JEAN-PIERRE 00:54:21 V2M 74 00:22:23 00:19:11 NON LICENCIE 11,040 05:26
631 552 MAGNE FREDERIC 00:54:22 V2M 75 00:22:24 00:19:12 NON LICENCIE 11,036 05:26
632 919 SERGENT LUCIE 00:54:24 SEF 35 00:22:26 00:16:54 NON LICENCIE 11,029 05:26
633 718 SELLIER DELPHINE 00:54:30 V1F 47 00:22:32 00:16:26 OPALE TRAIL NATURE 11,009 05:27
634 746 MAJENE SANDY 00:54:31 V1F 48 00:22:33 00:16:27 ATHLETISME CLUB OUTREAU 11,006 05:27
635 860 BUCHET LAURENCE 00:54:31 SEF 36 00:22:33 00:17:01 CULTURE DANSE ETAPLES 11,006 05:27
636 653 LECERF BASTIEN 00:54:38 ESM 12 00:22:40 00:19:16 NON LICENCIE 10,982 05:28
637 825 DURIEZ CLEMENTINE 00:54:42 JUF 3 00:22:44 00:03:32 WIMEREUX RUNNING CLUB 10,969 05:28
638 365 VILLETTE FREDERIC 00:54:43 SEM 190 00:22:45 00:22:45 WIMEREUX RUNNING CLUB 10,966 05:28
639 789 DELANNOY AURELIE 00:54:46 SEF 37 00:22:48 00:17:16 ATHLETISME CLUB OUTREAU 10,956 05:29
640 479 BAUDELET TONY 00:54:50 SEM 191 00:22:52 00:22:52 NON LICENCIE 10,942 05:29
641 734 FLAHAUT SEVERINE 00:54:50 SEF 38 00:22:52 00:17:20 ATHLETISME CLUB OUTREAU 10,942 05:29
642 330 MORIN VINCENT 00:54:55 V1M 195 00:22:57 00:22:27 SPORT EVASION DES 2 CAPS 10,926 05:30
643 235 THOORIS LAURENT 00:54:56 V1M 196 00:22:58 00:22:28 NON LICENCIE 10,922 05:30
644 772 ANDEL CELINE 00:55:00 SEF 39 00:23:02 00:17:30 SAINT MARTIN ATHLETISME 10,909 05:30
645 649 POCHET LUDOVIC 00:55:02 SEM 192 00:23:04 00:23:04 NON LICENCIE 10,902 05:30
646 172 PIHL JOEL 00:55:04 V3M 25 00:23:06 00:16:22 SAINT MARTIN ATHLETISME 10,896 05:30
647 823 HOAREAU FREDERIQUE 00:55:05 V1F 49 00:23:07 00:17:01 WIMEREUX RUNNING CLUB 10,893 05:31
648 426 GOBERT GILLES 00:55:14 V2M 76 00:23:16 00:20:04 NON LICENCIE 10,863 05:31
649 500 CHARLET JULIEN 00:55:14 SEM 193 00:23:16 00:23:16 NON LICENCIE 10,863 05:31
650 635 BIALAIS SEBASTIEN 00:55:17 SEM 194 00:23:19 00:23:19 TEAM RAKLETTE 10,853 05:32
651 669 PIKIEFU JELVHIN 00:55:21 V1M 197 00:23:23 00:22:53 NON LICENCIE 10,840 05:32
652 613 ACHILLE DOMINIQUE 00:55:23 V3M 26 00:23:25 00:16:41 NON LICENCIE 10,834 05:32
653 551 ?Dossard #551 00:55:23 SEM 195 00:23:25 00:23:25   10,834 05:32
654 750 SEGUIN AURORE 00:55:25 SEF 40 00:23:27 00:17:55 ATHLETISME CLUB OUTREAU 10,827 05:32
655 156 LOISEL VINCENT 00:55:30 V1M 198 00:23:32 00:23:02 BOULOGNE ATHLETIQUE CLUB 10,811 05:33
656 423 LABRE NICOLAS 00:55:31 V1M 199 00:23:33 00:23:03 NON LICENCIE 10,808 05:33
657 413 GRARE SEBASTIEN 00:55:31 SEM 196 00:23:33 00:23:33 NON LICENCIE 10,808 05:33
658 748 PALFRAY MARTINE 00:55:32 V2F 17 00:23:34 00:12:02 ATHLETISME CLUB OUTREAU 10,804 05:33
659 415 SERGENT ROMAIN 00:55:33 SEM 197 00:23:35 00:23:35 NON LICENCIE 10,801 05:33
660 341 CORDIER LAURENT 00:55:34 SEM 198 00:23:36 00:23:36 NON LICENCIE 10,798 05:33
661 771 KORBER ANNIE 00:55:36 V2F 18 00:23:38 00:12:06 SAINT MARTIN ATHLETISME 10,791 05:34
662 890 LAVIE BETTY 00:55:38 SEF 41 00:23:40 00:18:08 TOUQUET TRAIL NATURE 10,785 05:34
663 88 DELECOUR CHRISTOPHE 00:55:42 V1M 200 00:23:44 00:23:14 ATHLETISME CLUB OUTREAU 10,772 05:34
664 435 LEGRAND OLIVIER 00:55:42 SEM 199 00:23:44 00:23:44 NON LICENCIE 10,772 05:34
665 758 LIMASCON FLORENCE 00:55:43 V1F 50 00:23:45 00:17:39 ATHLETISME CLUB OUTREAU 10,769 05:34
666 150 SUEUR LOIC 00:55:43 SEM 200 00:23:45 00:23:45 ATHLETISME CLUB OUTREAU 10,769 05:34
667 893 PARENT MARIELLE 00:55:46 V1F 51 00:23:48 00:17:42 TOUQUET OPALE ATHLETISME 10,759 05:35
668 667 DEBOVE ROMAIN 00:55:48 CAM 17 00:23:50 00:21:36 NON LICENCIE 10,753 05:35
669 632 FERREIRA LUDOVIC 00:55:50 SEM 201 00:23:52 00:23:52 TEAM RAKLETTE 10,746 05:35
670 768 CARON LYUBA 00:55:58 V3F 3 00:24:00 00:04:06 SAINT MARTIN ATHLETISME 10,721 05:36
671 708 THERY MARTINE 00:55:58 V2F 19 00:24:00 00:12:28 PINK LADIES 10,721 05:36
672 462 TARTARE JEAN MICHEL 00:56:01 V1M 201 00:24:03 00:23:33 NON LICENCIE 10,711 05:36
673 533 VANDEWALLE CHRISTOPHE 00:56:06 V1M 202 00:24:08 00:23:38 NON LICENCIE 10,695 05:37
674 534 HOEZEELE JONATHAN 00:56:07 SEM 202 00:24:09 00:24:09 NON LICENCIE 10,692 05:37
675 906 RICHARD CHRISTINE 00:56:07 V1F 52 00:24:09 00:18:03 NON LICENCIE 10,692 05:37
676 764 CRETEL LAURENCE 00:56:09 V1F 53 00:24:11 00:18:05 CS NESLES 10,686 05:37
677 870 WIERRE SEVERINE 00:56:09 SEF 42 00:24:11 00:18:39 ATHLETIQUE CLUB CAPELLOIS 10,686 05:37
678 833 REMBUR VIRGINIE 00:56:10 V2F 20 00:24:12 00:12:40 TOUQUET OPALE ATHLETISME 10,682 05:37
679 380 BONNEAU ALAIN 00:56:13 V2M 77 00:24:15 00:21:03 LE DRAPEAU 10,673 05:37
680 250 BAEYENS GREGORY 00:56:15 SEM 203 00:24:17 00:24:17 NON LICENCIE 10,667 05:37
681 79 DEFIEZ OLIVIER 00:56:15 V1M 203 00:24:17 00:23:47 NON LICENCIE 10,667 05:37
682 514 THELLIER EMMANUEL 00:56:21 V1M 204 00:24:23 00:23:53 NON LICENCIE 10,648 05:38
683 826 BOUGARD SYLVIE 00:56:27 V1F 54 00:24:29 00:18:23 WIMEREUX RUNNING CLUB 10,629 05:39
684 848 DESCAMPS MARION 00:56:30 SEF 43 00:24:32 00:19:00 LE DRAPEAU 10,619 05:39
685 199 WADOUX HERVE 00:56:31 V1M 205 00:24:33 00:24:03 ATHLETISME CLUB OUTREAU 10,616 05:39
686 723 REGNIER KATY 00:56:33 V1F 55 00:24:35 00:18:29 NON LICENCIE 10,610 05:39
687 522 GOURNAY YANNICK 00:56:38 SEM 204 00:24:40 00:24:40 NON LICENCIE 10,594 05:40
688 22 FENET FRANCOIS 00:56:40 SEM 205 00:24:42 00:24:42 NON LICENCIE 10,588 05:40
689 6 HAMY PHILIPPE 00:56:42 V2M 78 00:24:44 00:21:32 RC MONT DE COUPLE 10,582 05:40
690 631 PORA PASCAL 00:56:42 V2M 79 00:24:44 00:21:32 NON LICENCIE 10,582 05:40
691 815 DEWEER GAELLE 00:56:44 SEF 44 00:24:46 00:19:14 NON LICENCIE 10,576 05:40
692 563 DESCAMPS ROMAIN 00:56:51 SEM 206 00:24:53 00:24:53 NON LICENCIE 10,554 05:41
693 411 CIMAROSTI MATTEO 00:57:07 CAM 18 00:25:09 00:22:55 NON LICENCIE 10,505 05:43
694 827 DUCROCQ CAROLE 00:57:07 V1F 56 00:25:09 00:19:03 WIMEREUX RUNNING CLUB 10,505 05:43
695 366 DUBRULLE FRANCK 00:57:10 V2M 80 00:25:12 00:22:00 WIMEREUX RUNNING CLUB 10,496 05:43
696 824 KERAMBRUN ALEXANDRA 00:57:11 SEF 45 00:25:13 00:19:41 WIMEREUX RUNNING CLUB 10,493 05:43
697 751 TELLIER ISABELLE 00:57:11 V1F 57 00:25:13 00:19:07 ATHLETISME CLUB OUTREAU 10,493 05:43
698 664 LOUIS MAXIME 00:57:22 SEM 207 00:25:24 00:25:24 NON LICENCIE 10,459 05:44
699 537 POURRE PASCAL 00:57:22 V2M 81 00:25:24 00:22:12 NON LICENCIE 10,459 05:44
700 710 PLOUVIN LUDIVINE 00:57:28 V1F 58 00:25:30 00:19:24 NON LICENCIE 10,441 05:45
701 463 LEDEZ PATRICK 00:57:31 V2M 82 00:25:33 00:22:21 NON LICENCIE 10,432 05:45
702 73 TREDEZ JONATHAN 00:57:31 SEM 208 00:25:33 00:25:33 NON LICENCIE 10,432 05:45
703 171 DACQUIN GERARD 00:57:31 V2M 83 00:25:33 00:22:21 SAINT MARTIN ATHLETISME 10,432 05:45
704 811 WADOUX JULIE 00:57:31 SEF 46 00:25:33 00:20:01 NON LICENCIE 10,432 05:45
705 918 MAMELIN SANDRA 00:57:33 V1F 59 00:25:35 00:19:29 NON LICENCIE 10,426 05:45
706 418 SERGENT MAXIME 00:57:35 SEM 209 00:25:37 00:25:37 NON LICENCIE 10,420 05:46
707 780 PROST ISABELLE 00:57:41 SEF 47 00:25:43 00:20:11 ATHLETISME CLUB OUTREAU 10,402 05:46
708 739 HINGREZ MARTINE 00:57:48 V2F 21 00:25:50 00:14:18 ATHLETISME CLUB OUTREAU 10,381 05:47
709 760 MINET ELODIE 00:57:50 ESF 4 00:25:52 00:11:17 ATHLETISME CLUB OUTREAU 10,375 05:47
710 525 DUPUIS THOMAS 00:57:51 SEM 210 00:25:53 00:25:53 NON LICENCIE 10,372 05:47
711 730 BRILLARD CHRISTELE 00:57:52 SEF 48 00:25:54 00:20:22 ATHLETISME CLUB OUTREAU 10,369 05:47
712 777 DELIENCOURT AMELIE 00:57:53 SEF 49 00:25:55 00:20:23 ATHLETISME CLUB OUTREAU 10,366 05:47
713 285 GERARD PHILIPPE 00:57:54 V2M 84 00:25:56 00:22:44 ATHLETISME CLUB OUTREAU 10,363 05:47
714 282 ARROYO FRANCOIS 00:57:54 SEM 211 00:25:56 00:25:56 NON LICENCIE 10,363 05:47
715 747 MORICE STEPHANIE 00:57:55 V1F 60 00:25:57 00:19:51 ATHLETISME CLUB OUTREAU 10,360 05:47
716 909 MILLE FLORENCE 00:57:56 SEF 50 00:25:58 00:20:26 NON LICENCIE 10,357 05:48
717 914 LEPRETRE ISABELLE 00:58:01 V1F 61 00:26:03 00:19:57 NON LICENCIE 10,342 05:48
718 702 MAILLARD NADINE 00:58:05 V3F 4 00:26:07 00:06:13 PINK LADIES 10,330 05:48
719 582 CAFFIER MANUEL 00:58:06 V1M 206 00:26:08 00:25:38 NON LICENCIE 10,327 05:49
720 822 SUEUR MELANIE 00:58:21 SEF 51 00:26:23 00:20:51 SPORT EVASION DES 2 CAPS 10,283 05:50
721 206 LEGRAND THIERRY 00:58:27 SEM 212 00:26:29 00:26:29 NON LICENCIE 10,265 05:51
722 540 LAMIRAND CHRISTOPHE 00:58:28 V1M 207 00:26:30 00:26:00 NON LICENCIE 10,262 05:51
723 836 FOUCAULT CATHERINE 00:58:30 V2F 22 00:26:32 00:15:00 NON LICENCIE 10,256 05:51
724 912 LEPRETRE CARINE 00:58:31 V1F 62 00:26:33 00:20:27 NON LICENCIE 10,253 05:51
725 308 LE GALL LAURENT 00:58:31 V1M 208 00:26:33 00:26:03 NON LICENCIE 10,253 05:51
726 766 LECLERCQ ANNE-MARIE 00:58:33 V3F 5 00:26:35 00:06:41 SAINT MARTIN ATHLETISME 10,248 05:51
727 901 BEAUDRAP ISABELLE 00:58:34 SEF 52 00:26:36 00:21:04 NON LICENCIE 10,245 05:51
728 23 JUSTIN NICOLAS 00:58:41 V1M 209 00:26:43 00:26:13 NON LICENCIE 10,224 05:52
729 344 VANACKERE FREDERIC 00:58:42 V2M 85 00:26:44 00:23:32 NON LICENCIE 10,221 05:52
730 377 BOURGAIN PHILIPPE 00:58:43 V2M 86 00:26:45 00:23:33 LE DRAPEAU 10,219 05:52
731 793 KRUBA MARIE LIESSE 00:58:44 V1F 63 00:26:46 00:20:40 SAINT MARTIN ATHLETISME 10,216 05:52
732 412 BOULET VALENTIN 00:58:47 CAM 19 00:26:49 00:24:35 NON LICENCIE 10,207 05:53
733 572 LEROY THOMAS 00:58:53 SEM 213 00:26:55 00:26:55 NON LICENCIE 10,190 05:53
734 898 FOURNIER DELPHINE 00:58:53 SEF 53 00:26:55 00:21:23 NON LICENCIE 10,190 05:53
735 236 DEVIGNE JEAN LOUIS 00:58:58 V3M 27 00:27:00 00:20:16 ATHLETISME CLUB OUTREAU 10,175 05:54
736 784 DELPIERRE CAROLINE 00:59:00 SEF 54 00:27:02 00:21:30 ATHLETISME CLUB OUTREAU 10,169 05:54
737 616 MACHOWIAK FRANCIS 00:59:06 V3M 28 00:27:08 00:20:24 BACO 10,152 05:55
738 816 PECQUEUX VALERIE 00:59:07 V2F 23 00:27:09 00:15:37 NON LICENCIE 10,149 05:55
739 847 RIQUIER MARIELLE 00:59:12 V2F 24 00:27:14 00:15:42 LE DRAPEAU 10,135 05:55
740 451 LUBASZKA JEAN LUC 00:59:19 V2M 87 00:27:21 00:24:09 ATHLETIQUE CLUB CAPELLOIS 10,115 05:56
741 873 CAPIAUX JULIETTE 00:59:21 CAF 3 00:27:23 00:13:24 NON LICENCIE 10,110 05:56
742 792 DELPLACE JULIE 00:59:23 SEF 55 00:27:25 00:21:53 TEAMRAKLETTE 10,104 05:56
743 905 BUTEL CATHERINE 00:59:33 V2F 25 00:27:35 00:16:03 NON LICENCIE 10,076 05:57
744 738 GOURNAY AUDREY 00:59:33 SEF 56 00:27:35 00:22:03 ATHLETISME CLUB OUTREAU 10,076 05:57
745 118 LAPLACE JEROME 00:59:41 SEM 214 00:27:43 00:27:43 NON LICENCIE 10,053 05:58
746 136 CALON CHRISTIAN 00:59:42 V2M 88 00:27:44 00:24:32 ATHLETISME CLUB OUTREAU 10,050 05:58
747 731 DAUTREVAUX CAROLINE 00:59:44 V1F 64 00:27:46 00:21:40 ATHLETISME CLUB OUTREAU 10,045 05:58
748 644 PIONTEK FABRICE 00:59:46 V1M 210 00:27:48 00:27:18 SAPEURS POMPIERS DESVRES 10,039 05:59
749 756 CARON CAROLINE 00:59:46 SEF 57 00:27:48 00:22:16 ATHLETISME CLUB OUTREAU 10,039 05:59
750 864 LHOMEL MURIELLE 00:59:51 V2F 26 00:27:53 00:16:21 NON LICENCIE 10,025 05:59
751 231 MINET ROGER 00:59:52 V3M 29 00:27:54 00:21:10 AMICALE HOSPITALIERS BOULOGNE 10,022 05:59
752 841 MODOLO FANNY 01:00:18 V1F 65 00:28:20 00:22:14 LE DRAPEAU 9,950 06:02
753 641 RIDEZ JEAN-MARIE 01:00:22 V1M 211 00:28:24 00:27:54 NON LICENCIE 9,939 06:02
754 565 HADOT BERNARD 01:00:31 V3M 30 00:28:33 00:21:49 NON LICENCIE 9,915 06:03
755 724 MACQUET MARION 01:00:47 SEF 58 00:28:49 00:23:17 NON LICENCIE 9,871 06:05
756 774 MALFOY PASCALE 01:01:00 V2F 27 00:29:02 00:17:30 SAINT MARTIN ATHLETISME 9,836 06:06
757 182 MALFOY MICHEL 01:01:01 V3M 31 00:29:03 00:22:19 SAINT MARTIN ATHLETISME 9,833 06:06
758 857 OMBROUCK NADEGE 01:01:19 V1F 66 00:29:21 00:23:15 NON LICENCIE 9,785 06:08
759 185 HARLE MICHEL 01:01:32 V2M 89 00:29:34 00:26:22 SAINT MARTIN ATHLETISME 9,751 06:09
760 921 DEBOVE MALIKA 01:01:49 JUF 4 00:29:51 00:10:39 NON LICENCIE 9,706 06:11
761 421 OMBROUCK JEROME 01:01:52 V1M 212 00:29:54 00:29:24 NON LICENCIE 9,698 06:11
762 886 HALLENNE KARINE 01:01:55 V1F 67 00:29:57 00:23:51 TOUQUET OPALE ATHLETISME 9,690 06:12
763 763 BERKOUN LAETITIA 01:01:59 SEF 59 00:30:01 00:24:29 BOULOGNE ATHLETIQUE CLUB 9,680 06:12
764 69 GIBERT JEAN-LUC 01:02:04 V3M 32 00:30:06 00:23:22 SPORT PLUS 9,667 06:12
765 903 PRUVOT FABIENNE 01:02:06 V1F 68 00:30:08 00:24:02 NON LICENCIE 9,662 06:13
766 888 QUENUT CHRISTINE 01:02:13 V1F 69 00:30:15 00:24:09 NON LICENCIE 9,644 06:13
767 879 KUOCH VANESSA 01:02:29 SEF 60 00:30:31 00:24:59 NON LICENCIE 9,603 06:15
768 880 MATUSZEUSKI MELANIE 01:02:29 SEF 61 00:30:31 00:24:59 NON LICENCIE 9,603 06:15
769 868 OVION AGNES 01:02:34 V1F 70 00:30:36 00:24:30 ATHLETIQUE CLUB CAPELLOIS 9,590 06:15
770 713 MOULIERE MARINE 01:02:41 SEF 62 00:30:43 00:25:11 NON LICENCIE 9,572 06:16
771 719 MOULIERE LYDIE 01:02:50 V1F 71 00:30:52 00:24:46 NON LICENCIE 9,549 06:17
772 38 TREDEZ FABIEN 01:02:53 V2M 90 00:30:55 00:27:43 NON LICENCIE 9,541 06:17
773 460 SALMON CHRISTOPHE 01:03:01 V1M 213 00:31:03 00:30:33 NON LICENCIE 9,521 06:18
774 872 SCHUMACHER SANDRA 01:03:01 V1F 72 00:31:03 00:24:57 NON LICENCIE 9,521 06:18
775 767 TOUGERON STEPHANIE 01:03:02 V1F 73 00:31:04 00:24:58 SAINT MARTIN ATHLETISME 9,519 06:18
776 920 DEMAGNY MARIE 01:03:03 SEF 63 00:31:05 00:25:33 NON LICENCIE 9,516 06:18
777 810 HENQUEZ BERNADETTE 01:03:11 V3F 6 00:31:13 00:11:19 PATRIOTES DE GUINES 9,496 06:19
778 629 BELLANGER FREDERIC 01:03:15 V1M 214 00:31:17 00:30:47 NON LICENCIE 9,486 06:19
779 735 GAZET CAROLINE 01:03:31 SEF 64 00:31:33 00:26:01 ATHLETISME CLUB OUTREAU 9,446 06:21
780 743 LESAFFRE NADEGE 01:03:37 V1F 74 00:31:39 00:25:33 ATHLETISME CLUB OUTREAU 9,431 06:22
781 722 CORNE FRANCOISE 01:03:41 V3F 7 00:31:43 00:11:49 SPORT PLUS 9,422 06:22
782 741 LEDUCQ MARTINE 01:03:44 V2F 28 00:31:46 00:20:14 ATHLETISME CLUB OUTREAU 9,414 06:22
783 891 CAILLOCE MARILYNE 01:03:51 SEF 65 00:31:53 00:26:21 NON LICENCIE 9,397 06:23
784 787 INTILE FRANCOISE 01:04:08 V1F 75 00:32:10 00:26:04 NON LICENCIE 9,356 06:25
785 233 HASPESLAG JEAN FRANCOIS 01:04:08 V3M 33 00:32:10 00:25:26 NON LICENCIE 9,356 06:25
786 234 INTILE PHILIPPE 01:04:08 V1M 215 00:32:10 00:31:40 NON LICENCIE 9,356 06:25
787 433 JACQUESSON DANIEL 01:04:19 V2M 91 00:32:21 00:29:09 NON LICENCIE 9,329 06:26
788 1 LETIZIA WALTER 01:04:37 V2M 92 00:32:39 00:29:27 NON LICENCIE 9,286 06:28
789 434 GOSSELIN BRUNO 01:04:42 V2M 93 00:32:44 00:29:32 NON LICENCIE 9,274 06:28
790 884 MAUGUIERE CAROLINE 01:04:52 V1F 76 00:32:54 00:26:48 NON LICENCIE 9,250 06:29
791 770 PIHL MARIE-BERTHE 01:05:10 V2F 29 00:33:12 00:21:40 SAINT MARTIN ATHLETISME 9,207 06:31
792 700 LIGNIER MARIE FRANCE 01:05:18 V4F 1 00:33:20 00:00:00 PINK LADIES 9,188 06:32
793 902 LOISON ANNE 01:05:31 SEF 66 00:33:33 00:28:01 NON LICENCIE 9,158 06:33
794 883 HAMY DANIELE 01:05:31 V1F 77 00:33:33 00:27:27 NON LICENCIE 9,158 06:33
795 885 FEUTRY MATHILDE 01:05:42 SEF 67 00:33:44 00:28:12 PATRIOT CROSS GUINES 9,132 06:34
796 892 MASSON BETTY 01:05:53 SEF 68 00:33:55 00:28:23 NON LICENCIE 9,107 06:35
797 594 DELAYEN PHILIPPE 01:05:53 V2M 94 00:33:55 00:30:43 NON LICENCIE 9,107 06:35
798 321 BERTIN NICOLAS 01:06:06 V1M 216 00:34:08 00:33:38 NON LICENCIE 9,077 06:37
799 817 LECHAN MARJORIE 01:06:06 V1F 78 00:34:08 00:28:02 NON LICENCIE 9,077 06:37
800 316 LECLERCQ CYRILLE 01:06:06 V1M 217 00:34:08 00:33:38 NON LICENCIE 9,077 06:37
801 834 PAINSET CORINNE 01:06:06 V1F 79 00:34:08 00:28:02 NON LICENCIE 9,077 06:37
802 320 MARIE EMMANUEL 01:06:07 V1M 218 00:34:09 00:33:39 NON LICENCIE 9,075 06:37
803 319 BAHEUX DOMINIQUE 01:06:07 V2M 95 00:34:09 00:30:57 NON LICENCIE 9,075 06:37
804 416 BOULET PHILIPPE 01:06:43 V1M 219 00:34:45 00:34:15 NON LICENCIE 8,993 06:40
805 856 BAILLY ALICIA 01:06:43 SEF 69 00:34:45 00:29:13 NON LICENCIE 8,993 06:40
806 419 BAILLY JEAN CLAUDE 01:06:43 V3M 34 00:34:45 00:28:01 NON LICENCIE 8,993 06:40
807 818 BRENEL CHRISTELLE 01:07:05 V1F 80 00:35:07 00:29:01 ATHLETISME CLUB OUTREAU 8,944 06:43
808 325 BRENEL SAMUEL 01:07:05 V1M 220 00:35:07 00:34:37 ATHLETISME CLUB OUTREAU 8,944 06:43
809 894 BOULARD MARIE-ANTOINETTE 01:07:20 V3F 8 00:35:22 00:15:28 NON LICENCIE 8,911 06:44
810 911 JOLY ALEXANDRA 01:08:25 SEF 70 00:36:27 00:30:55 NON LICENCIE 8,770 06:50
811 908 CAUX STEPHANIE 01:08:34 SEF 71 00:36:36 00:31:04 NON LICENCIE 8,751 06:51
812 814 HUDDLESTONE LINDA 01:08:51 SEF 72 00:36:53 00:31:21 NON LICENCIE 8,715 06:53
813 11 DEPARIS DANIEL 01:09:11 V3M 35 00:37:13 00:30:29 NON LICENCIE 8,673 06:55
814 899 LEJEUNE HELENE 01:09:31 SEF 73 00:37:33 00:32:01 NON LICENCIE 8,631 06:57
815 753 GIRAULT NATHALIE 01:09:39 V1F 81 00:37:41 00:31:35 NON LICENCIE 8,615 06:58
816 705 LARCHER BEATRICE 01:09:56 V1F 82 00:37:58 00:31:52 NON LICENCIE 8,580 07:00
817 318 QUIQUET DIMITRI 01:10:00 SEM 215 00:38:02 00:38:02 NON LICENCIE 8,571 07:00
818 712 BEAUSSE CLEMENCE 01:10:59 SEF 74 00:39:01 00:33:29 NON LICENCIE 8,453 07:06
819 714 MORIAUX OCEANE 01:11:06 SEF 75 00:39:08 00:33:36 NON LICENCIE 8,439 07:07
820 845 CAMBIER AURELIE 01:11:43 SEF 76 00:39:45 00:34:13 LE DRAPEAU 8,366 07:10
821 715 LAFFITE AUDREY 01:12:49 ESF 5 00:40:51 00:26:16 NON LICENCIE 8,240 07:17
822 371 HANON JEAN-PIERRE 01:12:49 V2M 96 00:40:51 00:37:39 LE DRAPEAU 8,240 07:17
823 913 LEBLOND CINDY 01:15:04 SEF 77 00:43:06 00:37:34 NON LICENCIE 7,993 07:30
824 878 DELATTRE KARINE 01:15:41 SEF 78 00:43:43 00:38:11 NON LICENCIE 7,928 07:34
825 877 BAUDELET CORINNE 01:15:41 V1F 83 00:43:43 00:37:37 NON LICENCIE 7,928 07:34
826 863 MAHIEUX MARYSE 01:17:13 V2F 30 00:45:15 00:33:43 NON LICENCIE 7,770 07:43
827 915 RICHARD STEPHANIE 01:18:08 SEF 79 00:46:10 00:40:38 NON LICENCIE 7,679 07:49